<?xml version="1.0" encoding="UTF-8" standalone="no" ?>
<gpx xmlns="http://www.topografix.com/GPX/1/1" xmlns:xsi="http://www.w3.org/2001/XMLSchema-instance" xsi:schemaLocation="http://www.topografix.com/GPX/1/1 http://www.topografix.com/GPX/1/1/gpx.xsd" version="1.1" creator="VisuGPX - https://www.visugpx.com">
  <metadata>
    <name>remontée de l'Aiguebrun, Sivergues</name>
    <desc><![CDATA[remontée de l'Aiguebrun, Sivergues en passant par la baume de l'eau et chantemerle]]></desc>
  </metadata>
  <trk>
    <name><![CDATA[Maps3D 2018-11-09 03-04pm]]></name>
    <trkseg>
      <trkpt lat="43.80894" lon="5.34205">
        <ele>312.414185</ele>
        <time>2018-11-09T09:54:52Z</time>
      </trkpt>
      <trkpt lat="43.80903" lon="5.34233">
        <ele>302.375122</ele>
        <time>2018-11-09T09:55:08Z</time>
      </trkpt>
      <trkpt lat="43.80919" lon="5.34236">
        <ele>298.295258</ele>
        <time>2018-11-09T09:55:23Z</time>
      </trkpt>
      <trkpt lat="43.80935" lon="5.34223">
        <ele>300.985352</ele>
        <time>2018-11-09T09:55:39Z</time>
      </trkpt>
      <trkpt lat="43.80951" lon="5.34227">
        <ele>299.889771</ele>
        <time>2018-11-09T09:55:55Z</time>
      </trkpt>
      <trkpt lat="43.80968" lon="5.3424">
        <ele>297.220459</ele>
        <time>2018-11-09T09:56:11Z</time>
      </trkpt>
      <trkpt lat="43.80977" lon="5.34263">
        <ele>297.306854</ele>
        <time>2018-11-09T09:56:27Z</time>
      </trkpt>
      <trkpt lat="43.80995" lon="5.34277">
        <ele>298.706055</ele>
        <time>2018-11-09T09:56:42Z</time>
      </trkpt>
      <trkpt lat="43.81008" lon="5.34297">
        <ele>301.513153</ele>
        <time>2018-11-09T09:56:57Z</time>
      </trkpt>
      <trkpt lat="43.81021" lon="5.34309">
        <ele>303.615784</ele>
        <time>2018-11-09T09:57:13Z</time>
      </trkpt>
      <trkpt lat="43.81037" lon="5.34328">
        <ele>304.578247</ele>
        <time>2018-11-09T09:57:28Z</time>
      </trkpt>
      <trkpt lat="43.81053" lon="5.3435">
        <ele>306.448395</ele>
        <time>2018-11-09T09:57:43Z</time>
      </trkpt>
      <trkpt lat="43.81062" lon="5.34375">
        <ele>307.682526</ele>
        <time>2018-11-09T09:57:59Z</time>
      </trkpt>
      <trkpt lat="43.81072" lon="5.34399">
        <ele>306.999939</ele>
        <time>2018-11-09T09:58:15Z</time>
      </trkpt>
      <trkpt lat="43.81087" lon="5.34407">
        <ele>304.059631</ele>
        <time>2018-11-09T09:58:31Z</time>
      </trkpt>
      <trkpt lat="43.81109" lon="5.34409">
        <ele>303.478668</ele>
        <time>2018-11-09T09:58:47Z</time>
      </trkpt>
      <trkpt lat="43.81132" lon="5.34409">
        <ele>302.940125</ele>
        <time>2018-11-09T09:59:02Z</time>
      </trkpt>
      <trkpt lat="43.81148" lon="5.34402">
        <ele>304.142456</ele>
        <time>2018-11-09T09:59:18Z</time>
      </trkpt>
      <trkpt lat="43.81164" lon="5.34401">
        <ele>304.291534</ele>
        <time>2018-11-09T09:59:34Z</time>
      </trkpt>
      <trkpt lat="43.81181" lon="5.34416">
        <ele>301.841064</ele>
        <time>2018-11-09T09:59:49Z</time>
      </trkpt>
      <trkpt lat="43.81202" lon="5.34423">
        <ele>304.786194</ele>
        <time>2018-11-09T10:00:05Z</time>
      </trkpt>
      <trkpt lat="43.81219" lon="5.34439">
        <ele>306.59433</ele>
        <time>2018-11-09T10:00:20Z</time>
      </trkpt>
      <trkpt lat="43.81242" lon="5.34452">
        <ele>306.030609</ele>
        <time>2018-11-09T10:00:36Z</time>
      </trkpt>
      <trkpt lat="43.81257" lon="5.34465">
        <ele>304.799561</ele>
        <time>2018-11-09T10:00:51Z</time>
      </trkpt>
      <trkpt lat="43.81276" lon="5.34471">
        <ele>305.523438</ele>
        <time>2018-11-09T10:01:07Z</time>
      </trkpt>
      <trkpt lat="43.81285" lon="5.34493">
        <ele>302.759857</ele>
        <time>2018-11-09T10:01:23Z</time>
      </trkpt>
      <trkpt lat="43.81304" lon="5.34507">
        <ele>303.097992</ele>
        <time>2018-11-09T10:01:39Z</time>
      </trkpt>
      <trkpt lat="43.81325" lon="5.34511">
        <ele>303.71701</ele>
        <time>2018-11-09T10:01:55Z</time>
      </trkpt>
      <trkpt lat="43.81349" lon="5.34512">
        <ele>304.710602</ele>
        <time>2018-11-09T10:02:11Z</time>
      </trkpt>
      <trkpt lat="43.81366" lon="5.34519">
        <ele>305.494141</ele>
        <time>2018-11-09T10:02:26Z</time>
      </trkpt>
      <trkpt lat="43.8139" lon="5.34509">
        <ele>307.090027</ele>
        <time>2018-11-09T10:02:42Z</time>
      </trkpt>
      <trkpt lat="43.81409" lon="5.34503">
        <ele>308.421844</ele>
        <time>2018-11-09T10:02:58Z</time>
      </trkpt>
      <trkpt lat="43.8143" lon="5.34501">
        <ele>308.977417</ele>
        <time>2018-11-09T10:03:14Z</time>
      </trkpt>
      <trkpt lat="43.81452" lon="5.34505">
        <ele>308.750122</ele>
        <time>2018-11-09T10:03:30Z</time>
      </trkpt>
      <trkpt lat="43.81474" lon="5.34508">
        <ele>308.606079</ele>
        <time>2018-11-09T10:03:46Z</time>
      </trkpt>
      <trkpt lat="43.81496" lon="5.34519">
        <ele>308.103149</ele>
        <time>2018-11-09T10:04:01Z</time>
      </trkpt>
      <trkpt lat="43.81514" lon="5.34532">
        <ele>309.965363</ele>
        <time>2018-11-09T10:04:16Z</time>
      </trkpt>
      <trkpt lat="43.8153" lon="5.34552">
        <ele>311.328857</ele>
        <time>2018-11-09T10:04:31Z</time>
      </trkpt>
      <trkpt lat="43.8154" lon="5.34572">
        <ele>311.547668</ele>
        <time>2018-11-09T10:04:47Z</time>
      </trkpt>
      <trkpt lat="43.81554" lon="5.346">
        <ele>311.96759</ele>
        <time>2018-11-09T10:05:03Z</time>
      </trkpt>
      <trkpt lat="43.81565" lon="5.34622">
        <ele>311.97583</ele>
        <time>2018-11-09T10:05:19Z</time>
      </trkpt>
      <trkpt lat="43.81576" lon="5.34635">
        <ele>312.069</ele>
        <time>2018-11-09T10:05:34Z</time>
      </trkpt>
      <trkpt lat="43.81585" lon="5.34655">
        <ele>311.277771</ele>
        <time>2018-11-09T10:05:50Z</time>
      </trkpt>
      <trkpt lat="43.81598" lon="5.34671">
        <ele>312.523132</ele>
        <time>2018-11-09T10:06:06Z</time>
      </trkpt>
      <trkpt lat="43.81613" lon="5.34681">
        <ele>314.511658</ele>
        <time>2018-11-09T10:06:21Z</time>
      </trkpt>
      <trkpt lat="43.81626" lon="5.34692">
        <ele>315.670532</ele>
        <time>2018-11-09T10:06:37Z</time>
      </trkpt>
      <trkpt lat="43.81646" lon="5.34701">
        <ele>317.827209</ele>
        <time>2018-11-09T10:06:53Z</time>
      </trkpt>
      <trkpt lat="43.81664" lon="5.34715">
        <ele>318.75</ele>
        <time>2018-11-09T10:07:09Z</time>
      </trkpt>
      <trkpt lat="43.81681" lon="5.34726">
        <ele>319.849518</ele>
        <time>2018-11-09T10:07:25Z</time>
      </trkpt>
      <trkpt lat="43.81696" lon="5.34747">
        <ele>319.883514</ele>
        <time>2018-11-09T10:07:41Z</time>
      </trkpt>
      <trkpt lat="43.81703" lon="5.34768">
        <ele>319.772064</ele>
        <time>2018-11-09T10:07:57Z</time>
      </trkpt>
      <trkpt lat="43.81713" lon="5.34793">
        <ele>319.490753</ele>
        <time>2018-11-09T10:08:12Z</time>
      </trkpt>
      <trkpt lat="43.81722" lon="5.34819">
        <ele>318.609833</ele>
        <time>2018-11-09T10:08:28Z</time>
      </trkpt>
      <trkpt lat="43.81727" lon="5.3485">
        <ele>317.126404</ele>
        <time>2018-11-09T10:08:43Z</time>
      </trkpt>
      <trkpt lat="43.81738" lon="5.34879">
        <ele>316.24234</ele>
        <time>2018-11-09T10:08:59Z</time>
      </trkpt>
      <trkpt lat="43.81756" lon="5.349">
        <ele>315.915436</ele>
        <time>2018-11-09T10:09:14Z</time>
      </trkpt>
      <trkpt lat="43.81764" lon="5.34923">
        <ele>315.519775</ele>
        <time>2018-11-09T10:09:29Z</time>
      </trkpt>
      <trkpt lat="43.81779" lon="5.34946">
        <ele>316.509583</ele>
        <time>2018-11-09T10:09:44Z</time>
      </trkpt>
      <trkpt lat="43.81793" lon="5.3497">
        <ele>316.635803</ele>
        <time>2018-11-09T10:10:00Z</time>
      </trkpt>
      <trkpt lat="43.818" lon="5.34994">
        <ele>315.87027</ele>
        <time>2018-11-09T10:10:15Z</time>
      </trkpt>
      <trkpt lat="43.81812" lon="5.35019">
        <ele>315.816345</ele>
        <time>2018-11-09T10:10:30Z</time>
      </trkpt>
      <trkpt lat="43.81823" lon="5.35045">
        <ele>315.413086</ele>
        <time>2018-11-09T10:10:46Z</time>
      </trkpt>
      <trkpt lat="43.8183" lon="5.35069">
        <ele>314.63739</ele>
        <time>2018-11-09T10:11:01Z</time>
      </trkpt>
      <trkpt lat="43.81837" lon="5.35095">
        <ele>314.552307</ele>
        <time>2018-11-09T10:11:17Z</time>
      </trkpt>
      <trkpt lat="43.81843" lon="5.35123">
        <ele>315.741943</ele>
        <time>2018-11-09T10:11:33Z</time>
      </trkpt>
      <trkpt lat="43.81845" lon="5.35149">
        <ele>316.580688</ele>
        <time>2018-11-09T10:11:48Z</time>
      </trkpt>
      <trkpt lat="43.81847" lon="5.35175">
        <ele>317.483887</ele>
        <time>2018-11-09T10:12:03Z</time>
      </trkpt>
      <trkpt lat="43.81857" lon="5.35206">
        <ele>319.495972</ele>
        <time>2018-11-09T10:12:19Z</time>
      </trkpt>
      <trkpt lat="43.81865" lon="5.35228">
        <ele>320.758759</ele>
        <time>2018-11-09T10:12:34Z</time>
      </trkpt>
      <trkpt lat="43.81875" lon="5.35251">
        <ele>322.056824</ele>
        <time>2018-11-09T10:12:49Z</time>
      </trkpt>
      <trkpt lat="43.81881" lon="5.35273">
        <ele>323.565979</ele>
        <time>2018-11-09T10:13:04Z</time>
      </trkpt>
      <trkpt lat="43.81882" lon="5.35299">
        <ele>324.978333</ele>
        <time>2018-11-09T10:13:20Z</time>
      </trkpt>
      <trkpt lat="43.81899" lon="5.35326">
        <ele>326.117126</ele>
        <time>2018-11-09T10:13:36Z</time>
      </trkpt>
      <trkpt lat="43.81914" lon="5.3534">
        <ele>325.924377</ele>
        <time>2018-11-09T10:13:52Z</time>
      </trkpt>
      <trkpt lat="43.81932" lon="5.35337">
        <ele>327.365723</ele>
        <time>2018-11-09T10:14:08Z</time>
      </trkpt>
      <trkpt lat="43.81952" lon="5.35328">
        <ele>329.357483</ele>
        <time>2018-11-09T10:14:23Z</time>
      </trkpt>
      <trkpt lat="43.81973" lon="5.3533">
        <ele>331.454773</ele>
        <time>2018-11-09T10:14:39Z</time>
      </trkpt>
      <trkpt lat="43.81989" lon="5.35324">
        <ele>333.169373</ele>
        <time>2018-11-09T10:14:54Z</time>
      </trkpt>
      <trkpt lat="43.82002" lon="5.35324">
        <ele>334.746185</ele>
        <time>2018-11-09T10:15:11Z</time>
      </trkpt>
      <trkpt lat="43.82016" lon="5.35337">
        <ele>336.732422</ele>
        <time>2018-11-09T10:15:26Z</time>
      </trkpt>
      <trkpt lat="43.8203" lon="5.35355">
        <ele>337.902679</ele>
        <time>2018-11-09T10:15:41Z</time>
      </trkpt>
      <trkpt lat="43.82039" lon="5.35375">
        <ele>338.022156</ele>
        <time>2018-11-09T10:15:57Z</time>
      </trkpt>
      <trkpt lat="43.82051" lon="5.35392">
        <ele>338.890961</ele>
        <time>2018-11-09T10:16:13Z</time>
      </trkpt>
      <trkpt lat="43.82065" lon="5.35409">
        <ele>340.227722</ele>
        <time>2018-11-09T10:16:29Z</time>
      </trkpt>
      <trkpt lat="43.82075" lon="5.35428">
        <ele>341.08844</ele>
        <time>2018-11-09T10:16:44Z</time>
      </trkpt>
      <trkpt lat="43.82083" lon="5.35447">
        <ele>342.219604</ele>
        <time>2018-11-09T10:17:00Z</time>
      </trkpt>
      <trkpt lat="43.82091" lon="5.35462">
        <ele>343.81778</ele>
        <time>2018-11-09T10:18:26Z</time>
      </trkpt>
      <trkpt lat="43.82099" lon="5.35487">
        <ele>345.22641</ele>
        <time>2018-11-09T10:18:41Z</time>
      </trkpt>
      <trkpt lat="43.82107" lon="5.35504">
        <ele>346.611176</ele>
        <time>2018-11-09T10:18:56Z</time>
      </trkpt>
      <trkpt lat="43.82117" lon="5.35528">
        <ele>347.190369</ele>
        <time>2018-11-09T10:19:11Z</time>
      </trkpt>
      <trkpt lat="43.8213" lon="5.35546">
        <ele>349.063965</ele>
        <time>2018-11-09T10:19:27Z</time>
      </trkpt>
      <trkpt lat="43.82141" lon="5.35565">
        <ele>350.323608</ele>
        <time>2018-11-09T10:19:42Z</time>
      </trkpt>
      <trkpt lat="43.82142" lon="5.35591">
        <ele>348.431763</ele>
        <time>2018-11-09T10:19:58Z</time>
      </trkpt>
      <trkpt lat="43.82146" lon="5.35621">
        <ele>347.049805</ele>
        <time>2018-11-09T10:20:14Z</time>
      </trkpt>
      <trkpt lat="43.82149" lon="5.35648">
        <ele>345.452698</ele>
        <time>2018-11-09T10:20:29Z</time>
      </trkpt>
      <trkpt lat="43.82159" lon="5.35677">
        <ele>345.323395</ele>
        <time>2018-11-09T10:20:45Z</time>
      </trkpt>
      <trkpt lat="43.82166" lon="5.35704">
        <ele>344.325745</ele>
        <time>2018-11-09T10:21:01Z</time>
      </trkpt>
      <trkpt lat="43.82181" lon="5.35731">
        <ele>345.459229</ele>
        <time>2018-11-09T10:21:17Z</time>
      </trkpt>
      <trkpt lat="43.82178" lon="5.35757">
        <ele>342.691711</ele>
        <time>2018-11-09T10:21:32Z</time>
      </trkpt>
      <trkpt lat="43.82167" lon="5.3578">
        <ele>338.602448</ele>
        <time>2018-11-09T10:21:47Z</time>
      </trkpt>
      <trkpt lat="43.8216" lon="5.35807">
        <ele>336.796173</ele>
        <time>2018-11-09T10:22:03Z</time>
      </trkpt>
      <trkpt lat="43.82152" lon="5.35825">
        <ele>335.705536</ele>
        <time>2018-11-09T10:22:18Z</time>
      </trkpt>
      <trkpt lat="43.8214" lon="5.35832">
        <ele>335.039551</ele>
        <time>2018-11-09T10:22:36Z</time>
      </trkpt>
      <trkpt lat="43.82125" lon="5.35834">
        <ele>334.536377</ele>
        <time>2018-11-09T10:22:53Z</time>
      </trkpt>
      <trkpt lat="43.82115" lon="5.35847">
        <ele>334.784882</ele>
        <time>2018-11-09T10:23:46Z</time>
      </trkpt>
      <trkpt lat="43.82103" lon="5.35855">
        <ele>334.961243</ele>
        <time>2018-11-09T10:24:09Z</time>
      </trkpt>
      <trkpt lat="43.8209" lon="5.35863">
        <ele>335.234894</ele>
        <time>2018-11-09T10:24:28Z</time>
      </trkpt>
      <trkpt lat="43.82091" lon="5.35887">
        <ele>336.86615</ele>
        <time>2018-11-09T10:24:43Z</time>
      </trkpt>
      <trkpt lat="43.82092" lon="5.35911">
        <ele>338.391235</ele>
        <time>2018-11-09T10:24:58Z</time>
      </trkpt>
      <trkpt lat="43.82091" lon="5.35929">
        <ele>340.199219</ele>
        <time>2018-11-09T10:25:15Z</time>
      </trkpt>
      <trkpt lat="43.82092" lon="5.35951">
        <ele>342.537872</ele>
        <time>2018-11-09T10:25:30Z</time>
      </trkpt>
      <trkpt lat="43.82086" lon="5.3597">
        <ele>345.20929</ele>
        <time>2018-11-09T10:25:45Z</time>
      </trkpt>
      <trkpt lat="43.82071" lon="5.35972">
        <ele>348.155823</ele>
        <time>2018-11-09T10:26:01Z</time>
      </trkpt>
      <trkpt lat="43.82056" lon="5.35961">
        <ele>349.820068</ele>
        <time>2018-11-09T10:26:17Z</time>
      </trkpt>
      <trkpt lat="43.82063" lon="5.35978">
        <ele>350.582825</ele>
        <time>2018-11-09T10:26:43Z</time>
      </trkpt>
      <trkpt lat="43.82072" lon="5.35994">
        <ele>350.597198</ele>
        <time>2018-11-09T10:26:59Z</time>
      </trkpt>
      <trkpt lat="43.82079" lon="5.36014">
        <ele>351.998932</ele>
        <time>2018-11-09T10:27:15Z</time>
      </trkpt>
      <trkpt lat="43.82085" lon="5.36034">
        <ele>353.672852</ele>
        <time>2018-11-09T10:27:31Z</time>
      </trkpt>
      <trkpt lat="43.82093" lon="5.36053">
        <ele>354.838715</ele>
        <time>2018-11-09T10:27:46Z</time>
      </trkpt>
      <trkpt lat="43.82098" lon="5.36082">
        <ele>357.684601</ele>
        <time>2018-11-09T10:28:02Z</time>
      </trkpt>
      <trkpt lat="43.82105" lon="5.36108">
        <ele>358.261658</ele>
        <time>2018-11-09T10:28:18Z</time>
      </trkpt>
      <trkpt lat="43.82115" lon="5.36133">
        <ele>357.773193</ele>
        <time>2018-11-09T10:28:33Z</time>
      </trkpt>
      <trkpt lat="43.82125" lon="5.36156">
        <ele>356.85907</ele>
        <time>2018-11-09T10:28:49Z</time>
      </trkpt>
      <trkpt lat="43.82134" lon="5.3618">
        <ele>356.795471</ele>
        <time>2018-11-09T10:29:04Z</time>
      </trkpt>
      <trkpt lat="43.82141" lon="5.3621">
        <ele>358.653748</ele>
        <time>2018-11-09T10:29:20Z</time>
      </trkpt>
      <trkpt lat="43.82152" lon="5.36234">
        <ele>358.540039</ele>
        <time>2018-11-09T10:29:35Z</time>
      </trkpt>
      <trkpt lat="43.8217" lon="5.36247">
        <ele>355.415253</ele>
        <time>2018-11-09T10:29:51Z</time>
      </trkpt>
      <trkpt lat="43.82171" lon="5.36268">
        <ele>356.661316</ele>
        <time>2018-11-09T10:30:06Z</time>
      </trkpt>
      <trkpt lat="43.8217" lon="5.36293">
        <ele>358.234985</ele>
        <time>2018-11-09T10:30:22Z</time>
      </trkpt>
      <trkpt lat="43.82165" lon="5.36317">
        <ele>360.765717</ele>
        <time>2018-11-09T10:30:37Z</time>
      </trkpt>
      <trkpt lat="43.82162" lon="5.36341">
        <ele>363.236725</ele>
        <time>2018-11-09T10:30:53Z</time>
      </trkpt>
      <trkpt lat="43.82166" lon="5.36375">
        <ele>361.756409</ele>
        <time>2018-11-09T10:31:08Z</time>
      </trkpt>
      <trkpt lat="43.82174" lon="5.3639">
        <ele>361.136017</ele>
        <time>2018-11-09T10:31:24Z</time>
      </trkpt>
      <trkpt lat="43.8218" lon="5.36414">
        <ele>361.157532</ele>
        <time>2018-11-09T10:31:40Z</time>
      </trkpt>
      <trkpt lat="43.82185" lon="5.36434">
        <ele>362.674133</ele>
        <time>2018-11-09T10:31:56Z</time>
      </trkpt>
      <trkpt lat="43.82191" lon="5.36451">
        <ele>363.779449</ele>
        <time>2018-11-09T10:32:14Z</time>
      </trkpt>
      <trkpt lat="43.82194" lon="5.36473">
        <ele>365.32608</ele>
        <time>2018-11-09T10:32:29Z</time>
      </trkpt>
      <trkpt lat="43.82201" lon="5.36494">
        <ele>366.167236</ele>
        <time>2018-11-09T10:32:45Z</time>
      </trkpt>
      <trkpt lat="43.822" lon="5.36517">
        <ele>368.651489</ele>
        <time>2018-11-09T10:33:01Z</time>
      </trkpt>
      <trkpt lat="43.82207" lon="5.36543">
        <ele>369.897095</ele>
        <time>2018-11-09T10:33:17Z</time>
      </trkpt>
      <trkpt lat="43.82212" lon="5.36564">
        <ele>370.796448</ele>
        <time>2018-11-09T10:33:32Z</time>
      </trkpt>
      <trkpt lat="43.82217" lon="5.36587">
        <ele>371.364258</ele>
        <time>2018-11-09T10:33:47Z</time>
      </trkpt>
      <trkpt lat="43.82225" lon="5.36615">
        <ele>370.230835</ele>
        <time>2018-11-09T10:34:03Z</time>
      </trkpt>
      <trkpt lat="43.82231" lon="5.36637">
        <ele>369.311829</ele>
        <time>2018-11-09T10:34:19Z</time>
      </trkpt>
      <trkpt lat="43.82239" lon="5.36657">
        <ele>367.36795</ele>
        <time>2018-11-09T10:34:35Z</time>
      </trkpt>
      <trkpt lat="43.82243" lon="5.3668">
        <ele>366.384796</ele>
        <time>2018-11-09T10:34:51Z</time>
      </trkpt>
      <trkpt lat="43.82253" lon="5.36703">
        <ele>364.667694</ele>
        <time>2018-11-09T10:35:06Z</time>
      </trkpt>
      <trkpt lat="43.82257" lon="5.36721">
        <ele>366.021881</ele>
        <time>2018-11-09T10:35:22Z</time>
      </trkpt>
      <trkpt lat="43.82273" lon="5.36749">
        <ele>371.545929</ele>
        <time>2018-11-09T10:35:38Z</time>
      </trkpt>
      <trkpt lat="43.82278" lon="5.36775">
        <ele>372.740234</ele>
        <time>2018-11-09T10:35:53Z</time>
      </trkpt>
      <trkpt lat="43.82275" lon="5.368">
        <ele>371.648315</ele>
        <time>2018-11-09T10:36:09Z</time>
      </trkpt>
      <trkpt lat="43.82279" lon="5.36824">
        <ele>372.064026</ele>
        <time>2018-11-09T10:36:24Z</time>
      </trkpt>
      <trkpt lat="43.82278" lon="5.36848">
        <ele>371.21814</ele>
        <time>2018-11-09T10:36:40Z</time>
      </trkpt>
      <trkpt lat="43.82282" lon="5.36866">
        <ele>370.933411</ele>
        <time>2018-11-09T10:36:55Z</time>
      </trkpt>
      <trkpt lat="43.82281" lon="5.36901">
        <ele>369.440002</ele>
        <time>2018-11-09T10:37:10Z</time>
      </trkpt>
      <trkpt lat="43.82275" lon="5.36923">
        <ele>368.46402</ele>
        <time>2018-11-09T10:37:25Z</time>
      </trkpt>
      <trkpt lat="43.82266" lon="5.36944">
        <ele>368.176697</ele>
        <time>2018-11-09T10:37:40Z</time>
      </trkpt>
      <trkpt lat="43.82268" lon="5.36967">
        <ele>368.373413</ele>
        <time>2018-11-09T10:37:56Z</time>
      </trkpt>
      <trkpt lat="43.82274" lon="5.36989">
        <ele>368.422089</ele>
        <time>2018-11-09T10:38:12Z</time>
      </trkpt>
      <trkpt lat="43.82282" lon="5.37008">
        <ele>368.985321</ele>
        <time>2018-11-09T10:38:28Z</time>
      </trkpt>
      <trkpt lat="43.82287" lon="5.37033">
        <ele>371.074219</ele>
        <time>2018-11-09T10:38:43Z</time>
      </trkpt>
      <trkpt lat="43.82296" lon="5.37056">
        <ele>372.187592</ele>
        <time>2018-11-09T10:38:58Z</time>
      </trkpt>
      <trkpt lat="43.82315" lon="5.37077">
        <ele>371.335022</ele>
        <time>2018-11-09T10:39:14Z</time>
      </trkpt>
      <trkpt lat="43.82312" lon="5.37098">
        <ele>373.048279</ele>
        <time>2018-11-09T10:39:30Z</time>
      </trkpt>
      <trkpt lat="43.82314" lon="5.37125">
        <ele>374.40152</ele>
        <time>2018-11-09T10:39:45Z</time>
      </trkpt>
      <trkpt lat="43.82302" lon="5.37136">
        <ele>377.286926</ele>
        <time>2018-11-09T10:40:05Z</time>
      </trkpt>
      <trkpt lat="43.82298" lon="5.37168">
        <ele>380.116821</ele>
        <time>2018-11-09T10:40:20Z</time>
      </trkpt>
      <trkpt lat="43.82293" lon="5.37202">
        <ele>380.806396</ele>
        <time>2018-11-09T10:40:36Z</time>
      </trkpt>
      <trkpt lat="43.82295" lon="5.37221">
        <ele>380.144775</ele>
        <time>2018-11-09T10:40:55Z</time>
      </trkpt>
      <trkpt lat="43.82302" lon="5.37249">
        <ele>378.568909</ele>
        <time>2018-11-09T10:41:10Z</time>
      </trkpt>
      <trkpt lat="43.82286" lon="5.37261">
        <ele>381.272705</ele>
        <time>2018-11-09T10:41:25Z</time>
      </trkpt>
      <trkpt lat="43.82271" lon="5.37274">
        <ele>382.617218</ele>
        <time>2018-11-09T10:41:41Z</time>
      </trkpt>
      <trkpt lat="43.82273" lon="5.37294">
        <ele>381.228455</ele>
        <time>2018-11-09T10:42:40Z</time>
      </trkpt>
      <trkpt lat="43.82264" lon="5.37322">
        <ele>379.428864</ele>
        <time>2018-11-09T10:42:55Z</time>
      </trkpt>
      <trkpt lat="43.82256" lon="5.37346">
        <ele>379.078888</ele>
        <time>2018-11-09T10:43:11Z</time>
      </trkpt>
      <trkpt lat="43.82248" lon="5.37362">
        <ele>380.07196</ele>
        <time>2018-11-09T10:44:15Z</time>
      </trkpt>
      <trkpt lat="43.82243" lon="5.37384">
        <ele>382.835999</ele>
        <time>2018-11-09T10:44:30Z</time>
      </trkpt>
      <trkpt lat="43.82241" lon="5.37409">
        <ele>384.008881</ele>
        <time>2018-11-09T10:44:45Z</time>
      </trkpt>
      <trkpt lat="43.82231" lon="5.37431">
        <ele>387.72641</ele>
        <time>2018-11-09T10:45:00Z</time>
      </trkpt>
      <trkpt lat="43.82229" lon="5.37451">
        <ele>389.800659</ele>
        <time>2018-11-09T10:45:16Z</time>
      </trkpt>
      <trkpt lat="43.82224" lon="5.37477">
        <ele>391.829254</ele>
        <time>2018-11-09T10:45:32Z</time>
      </trkpt>
      <trkpt lat="43.82212" lon="5.3749">
        <ele>391.776337</ele>
        <time>2018-11-09T10:45:47Z</time>
      </trkpt>
      <trkpt lat="43.82201" lon="5.37508">
        <ele>391.286255</ele>
        <time>2018-11-09T10:46:02Z</time>
      </trkpt>
      <trkpt lat="43.82193" lon="5.3753">
        <ele>391.102173</ele>
        <time>2018-11-09T10:46:18Z</time>
      </trkpt>
      <trkpt lat="43.82188" lon="5.3755">
        <ele>390.465118</ele>
        <time>2018-11-09T10:46:33Z</time>
      </trkpt>
      <trkpt lat="43.82189" lon="5.3757">
        <ele>391.32959</ele>
        <time>2018-11-09T10:47:21Z</time>
      </trkpt>
      <trkpt lat="43.82191" lon="5.37597">
        <ele>393.373596</ele>
        <time>2018-11-09T10:47:36Z</time>
      </trkpt>
      <trkpt lat="43.82184" lon="5.37618">
        <ele>391.809296</ele>
        <time>2018-11-09T10:47:52Z</time>
      </trkpt>
      <trkpt lat="43.82181" lon="5.37642">
        <ele>391.853271</ele>
        <time>2018-11-09T10:48:08Z</time>
      </trkpt>
      <trkpt lat="43.82177" lon="5.37663">
        <ele>391.461121</ele>
        <time>2018-11-09T10:48:23Z</time>
      </trkpt>
      <trkpt lat="43.82166" lon="5.37681">
        <ele>388.47113</ele>
        <time>2018-11-09T10:48:39Z</time>
      </trkpt>
      <trkpt lat="43.82159" lon="5.37698">
        <ele>391.328033</ele>
        <time>2018-11-09T10:48:54Z</time>
      </trkpt>
      <trkpt lat="43.82148" lon="5.37718">
        <ele>394.069427</ele>
        <time>2018-11-09T10:49:09Z</time>
      </trkpt>
      <trkpt lat="43.82143" lon="5.37741">
        <ele>395.707642</ele>
        <time>2018-11-09T10:49:24Z</time>
      </trkpt>
      <trkpt lat="43.82141" lon="5.37766">
        <ele>396.894196</ele>
        <time>2018-11-09T10:49:40Z</time>
      </trkpt>
      <trkpt lat="43.82144" lon="5.37793">
        <ele>398.145386</ele>
        <time>2018-11-09T10:49:55Z</time>
      </trkpt>
      <trkpt lat="43.82145" lon="5.37813">
        <ele>399.142456</ele>
        <time>2018-11-09T10:50:12Z</time>
      </trkpt>
      <trkpt lat="43.82142" lon="5.37839">
        <ele>400.412659</ele>
        <time>2018-11-09T10:50:28Z</time>
      </trkpt>
      <trkpt lat="43.82143" lon="5.37858">
        <ele>402.516571</ele>
        <time>2018-11-09T10:50:43Z</time>
      </trkpt>
      <trkpt lat="43.82146" lon="5.37882">
        <ele>405.209015</ele>
        <time>2018-11-09T10:50:58Z</time>
      </trkpt>
      <trkpt lat="43.82148" lon="5.37901">
        <ele>407.365479</ele>
        <time>2018-11-09T10:51:14Z</time>
      </trkpt>
      <trkpt lat="43.82151" lon="5.3792">
        <ele>409.336945</ele>
        <time>2018-11-09T10:51:37Z</time>
      </trkpt>
      <trkpt lat="43.82154" lon="5.37939">
        <ele>409.947937</ele>
        <time>2018-11-09T10:51:52Z</time>
      </trkpt>
      <trkpt lat="43.82162" lon="5.37962">
        <ele>411.033356</ele>
        <time>2018-11-09T10:52:08Z</time>
      </trkpt>
      <trkpt lat="43.82155" lon="5.37983">
        <ele>410.574768</ele>
        <time>2018-11-09T10:52:24Z</time>
      </trkpt>
      <trkpt lat="43.82153" lon="5.38007">
        <ele>410.18457</ele>
        <time>2018-11-09T10:52:39Z</time>
      </trkpt>
      <trkpt lat="43.8215" lon="5.38026">
        <ele>408.841766</ele>
        <time>2018-11-09T10:52:55Z</time>
      </trkpt>
      <trkpt lat="43.82151" lon="5.38046">
        <ele>407.849274</ele>
        <time>2018-11-09T10:53:10Z</time>
      </trkpt>
      <trkpt lat="43.82154" lon="5.38068">
        <ele>406.936432</ele>
        <time>2018-11-09T10:53:26Z</time>
      </trkpt>
      <trkpt lat="43.82154" lon="5.38087">
        <ele>406.07196</ele>
        <time>2018-11-09T10:53:43Z</time>
      </trkpt>
      <trkpt lat="43.82154" lon="5.38107">
        <ele>406.223846</ele>
        <time>2018-11-09T10:54:27Z</time>
      </trkpt>
      <trkpt lat="43.82157" lon="5.38127">
        <ele>406.618317</ele>
        <time>2018-11-09T10:54:42Z</time>
      </trkpt>
      <trkpt lat="43.82162" lon="5.38145">
        <ele>407.222443</ele>
        <time>2018-11-09T10:54:57Z</time>
      </trkpt>
      <trkpt lat="43.82167" lon="5.38174">
        <ele>408.199097</ele>
        <time>2018-11-09T10:55:13Z</time>
      </trkpt>
      <trkpt lat="43.82172" lon="5.38204">
        <ele>410.371399</ele>
        <time>2018-11-09T10:55:29Z</time>
      </trkpt>
      <trkpt lat="43.82181" lon="5.38225">
        <ele>414.763336</ele>
        <time>2018-11-09T10:55:45Z</time>
      </trkpt>
      <trkpt lat="43.82193" lon="5.3824">
        <ele>420.410339</ele>
        <time>2018-11-09T10:56:01Z</time>
      </trkpt>
      <trkpt lat="43.82204" lon="5.38255">
        <ele>425.060547</ele>
        <time>2018-11-09T10:56:16Z</time>
      </trkpt>
      <trkpt lat="43.82215" lon="5.3827">
        <ele>428.504822</ele>
        <time>2018-11-09T10:56:32Z</time>
      </trkpt>
      <trkpt lat="43.82218" lon="5.38288">
        <ele>427.78479</ele>
        <time>2018-11-09T10:57:02Z</time>
      </trkpt>
      <trkpt lat="43.82219" lon="5.38308">
        <ele>425.915405</ele>
        <time>2018-11-09T10:57:20Z</time>
      </trkpt>
      <trkpt lat="43.82232" lon="5.38328">
        <ele>425.989197</ele>
        <time>2018-11-09T10:57:35Z</time>
      </trkpt>
      <trkpt lat="43.82225" lon="5.38344">
        <ele>423.062408</ele>
        <time>2018-11-09T10:57:52Z</time>
      </trkpt>
      <trkpt lat="43.82226" lon="5.38366">
        <ele>421.473541</ele>
        <time>2018-11-09T10:58:08Z</time>
      </trkpt>
      <trkpt lat="43.82233" lon="5.38383">
        <ele>420.161621</ele>
        <time>2018-11-09T10:58:23Z</time>
      </trkpt>
      <trkpt lat="43.82241" lon="5.38412">
        <ele>416.55365</ele>
        <time>2018-11-09T10:58:39Z</time>
      </trkpt>
      <trkpt lat="43.82254" lon="5.38434">
        <ele>416.603302</ele>
        <time>2018-11-09T10:58:54Z</time>
      </trkpt>
      <trkpt lat="43.82265" lon="5.38456">
        <ele>421.858337</ele>
        <time>2018-11-09T10:59:10Z</time>
      </trkpt>
      <trkpt lat="43.82273" lon="5.38479">
        <ele>424.461304</ele>
        <time>2018-11-09T10:59:25Z</time>
      </trkpt>
      <trkpt lat="43.82278" lon="5.38506">
        <ele>425.110229</ele>
        <time>2018-11-09T10:59:41Z</time>
      </trkpt>
      <trkpt lat="43.82268" lon="5.38522">
        <ele>419.782288</ele>
        <time>2018-11-09T10:59:56Z</time>
      </trkpt>
      <trkpt lat="43.82242" lon="5.38518">
        <ele>412.539368</ele>
        <time>2018-11-09T11:00:12Z</time>
      </trkpt>
      <trkpt lat="43.82225" lon="5.38513">
        <ele>413.583466</ele>
        <time>2018-11-09T11:00:27Z</time>
      </trkpt>
      <trkpt lat="43.82205" lon="5.38512">
        <ele>414.86554</ele>
        <time>2018-11-09T11:00:43Z</time>
      </trkpt>
      <trkpt lat="43.82187" lon="5.3851">
        <ele>415.965668</ele>
        <time>2018-11-09T11:00:58Z</time>
      </trkpt>
      <trkpt lat="43.82179" lon="5.38527">
        <ele>416.814545</ele>
        <time>2018-11-09T11:01:15Z</time>
      </trkpt>
      <trkpt lat="43.82179" lon="5.38549">
        <ele>417.276062</ele>
        <time>2018-11-09T11:01:31Z</time>
      </trkpt>
      <trkpt lat="43.82178" lon="5.38573">
        <ele>417.875977</ele>
        <time>2018-11-09T11:01:46Z</time>
      </trkpt>
      <trkpt lat="43.82179" lon="5.38599">
        <ele>421.022217</ele>
        <time>2018-11-09T11:02:02Z</time>
      </trkpt>
      <trkpt lat="43.82183" lon="5.38618">
        <ele>424.081757</ele>
        <time>2018-11-09T11:02:17Z</time>
      </trkpt>
      <trkpt lat="43.82189" lon="5.38639">
        <ele>426.878906</ele>
        <time>2018-11-09T11:02:33Z</time>
      </trkpt>
      <trkpt lat="43.822" lon="5.3866">
        <ele>427.853638</ele>
        <time>2018-11-09T11:02:49Z</time>
      </trkpt>
      <trkpt lat="43.82209" lon="5.38679">
        <ele>428.667419</ele>
        <time>2018-11-09T11:03:04Z</time>
      </trkpt>
      <trkpt lat="43.82215" lon="5.38702">
        <ele>430.332336</ele>
        <time>2018-11-09T11:03:20Z</time>
      </trkpt>
      <trkpt lat="43.82225" lon="5.3873">
        <ele>430.171478</ele>
        <time>2018-11-09T11:03:36Z</time>
      </trkpt>
      <trkpt lat="43.82238" lon="5.38755">
        <ele>427.296448</ele>
        <time>2018-11-09T11:03:52Z</time>
      </trkpt>
      <trkpt lat="43.82244" lon="5.3878">
        <ele>428.520386</ele>
        <time>2018-11-09T11:04:08Z</time>
      </trkpt>
      <trkpt lat="43.82248" lon="5.38805">
        <ele>430.451752</ele>
        <time>2018-11-09T11:04:23Z</time>
      </trkpt>
      <trkpt lat="43.82259" lon="5.38827">
        <ele>432.249207</ele>
        <time>2018-11-09T11:04:38Z</time>
      </trkpt>
      <trkpt lat="43.82271" lon="5.38808">
        <ele>429.102295</ele>
        <time>2018-11-09T11:04:54Z</time>
      </trkpt>
      <trkpt lat="43.82282" lon="5.38791">
        <ele>427.016693</ele>
        <time>2018-11-09T11:05:10Z</time>
      </trkpt>
      <trkpt lat="43.82297" lon="5.38786">
        <ele>426.608276</ele>
        <time>2018-11-09T11:05:25Z</time>
      </trkpt>
      <trkpt lat="43.82313" lon="5.38786">
        <ele>426.583008</ele>
        <time>2018-11-09T11:05:41Z</time>
      </trkpt>
      <trkpt lat="43.82324" lon="5.38771">
        <ele>426.472107</ele>
        <time>2018-11-09T11:05:57Z</time>
      </trkpt>
      <trkpt lat="43.82323" lon="5.38751">
        <ele>426.229492</ele>
        <time>2018-11-09T11:06:24Z</time>
      </trkpt>
      <trkpt lat="43.82318" lon="5.38728">
        <ele>427.409058</ele>
        <time>2018-11-09T11:06:39Z</time>
      </trkpt>
      <trkpt lat="43.82331" lon="5.38732">
        <ele>428.463348</ele>
        <time>2018-11-09T11:07:14Z</time>
      </trkpt>
      <trkpt lat="43.82344" lon="5.38738">
        <ele>434.119019</ele>
        <time>2018-11-09T11:07:32Z</time>
      </trkpt>
      <trkpt lat="43.82357" lon="5.38747">
        <ele>439.998169</ele>
        <time>2018-11-09T11:07:51Z</time>
      </trkpt>
      <trkpt lat="43.82371" lon="5.38755">
        <ele>446.470123</ele>
        <time>2018-11-09T11:08:07Z</time>
      </trkpt>
      <trkpt lat="43.82381" lon="5.38767">
        <ele>450.026245</ele>
        <time>2018-11-09T11:08:27Z</time>
      </trkpt>
      <trkpt lat="43.82392" lon="5.38779">
        <ele>452.634491</ele>
        <time>2018-11-09T11:08:48Z</time>
      </trkpt>
      <trkpt lat="43.82398" lon="5.38796">
        <ele>451.703247</ele>
        <time>2018-11-09T11:09:04Z</time>
      </trkpt>
      <trkpt lat="43.82412" lon="5.38803">
        <ele>454.812042</ele>
        <time>2018-11-09T11:09:23Z</time>
      </trkpt>
      <trkpt lat="43.82426" lon="5.38819">
        <ele>456.317261</ele>
        <time>2018-11-09T11:09:39Z</time>
      </trkpt>
      <trkpt lat="43.82441" lon="5.38839">
        <ele>457.713135</ele>
        <time>2018-11-09T11:09:55Z</time>
      </trkpt>
      <trkpt lat="43.82457" lon="5.38856">
        <ele>460.045746</ele>
        <time>2018-11-09T11:10:10Z</time>
      </trkpt>
      <trkpt lat="43.82467" lon="5.38871">
        <ele>459.110565</ele>
        <time>2018-11-09T11:10:25Z</time>
      </trkpt>
      <trkpt lat="43.82478" lon="5.38885">
        <ele>458.096924</ele>
        <time>2018-11-09T11:10:40Z</time>
      </trkpt>
      <trkpt lat="43.82491" lon="5.3891">
        <ele>452.896576</ele>
        <time>2018-11-09T11:10:56Z</time>
      </trkpt>
      <trkpt lat="43.825" lon="5.38926">
        <ele>451.411499</ele>
        <time>2018-11-09T11:11:12Z</time>
      </trkpt>
      <trkpt lat="43.82508" lon="5.3891">
        <ele>459.501465</ele>
        <time>2018-11-09T11:12:44Z</time>
      </trkpt>
      <trkpt lat="43.82492" lon="5.38892">
        <ele>460.33548</ele>
        <time>2018-11-09T11:12:59Z</time>
      </trkpt>
      <trkpt lat="43.82486" lon="5.38873">
        <ele>465.781433</ele>
        <time>2018-11-09T11:13:14Z</time>
      </trkpt>
      <trkpt lat="43.82497" lon="5.38862">
        <ele>474.243134</ele>
        <time>2018-11-09T11:13:52Z</time>
      </trkpt>
      <trkpt lat="43.82507" lon="5.38879">
        <ele>471.372803</ele>
        <time>2018-11-09T11:14:07Z</time>
      </trkpt>
      <trkpt lat="43.82519" lon="5.38889">
        <ele>472.274963</ele>
        <time>2018-11-09T11:14:23Z</time>
      </trkpt>
      <trkpt lat="43.82531" lon="5.38896">
        <ele>475.263489</ele>
        <time>2018-11-09T11:14:40Z</time>
      </trkpt>
      <trkpt lat="43.82544" lon="5.38891">
        <ele>482.469238</ele>
        <time>2018-11-09T11:15:31Z</time>
      </trkpt>
      <trkpt lat="43.8255" lon="5.38908">
        <ele>480.89328</ele>
        <time>2018-11-09T11:15:50Z</time>
      </trkpt>
      <trkpt lat="43.82552" lon="5.38889">
        <ele>486.152161</ele>
        <time>2018-11-09T11:16:23Z</time>
      </trkpt>
      <trkpt lat="43.82547" lon="5.38871">
        <ele>488.570007</ele>
        <time>2018-11-09T11:16:43Z</time>
      </trkpt>
      <trkpt lat="43.82539" lon="5.38854">
        <ele>490.27771</ele>
        <time>2018-11-09T11:17:03Z</time>
      </trkpt>
      <trkpt lat="43.82553" lon="5.38856">
        <ele>493.957092</ele>
        <time>2018-11-09T11:17:34Z</time>
      </trkpt>
      <trkpt lat="43.82564" lon="5.38875">
        <ele>493.584503</ele>
        <time>2018-11-09T11:17:50Z</time>
      </trkpt>
      <trkpt lat="43.8257" lon="5.38893">
        <ele>492.960083</ele>
        <time>2018-11-09T11:18:07Z</time>
      </trkpt>
      <trkpt lat="43.82575" lon="5.38911">
        <ele>492.52066</ele>
        <time>2018-11-09T11:18:23Z</time>
      </trkpt>
      <trkpt lat="43.82582" lon="5.38928">
        <ele>490.568115</ele>
        <time>2018-11-09T11:18:42Z</time>
      </trkpt>
      <trkpt lat="43.82591" lon="5.38943">
        <ele>486.07605</ele>
        <time>2018-11-09T11:18:58Z</time>
      </trkpt>
      <trkpt lat="43.82603" lon="5.38951">
        <ele>484.212769</ele>
        <time>2018-11-09T11:19:14Z</time>
      </trkpt>
      <trkpt lat="43.82614" lon="5.38939">
        <ele>490.609009</ele>
        <time>2018-11-09T11:19:44Z</time>
      </trkpt>
      <trkpt lat="43.82626" lon="5.38929">
        <ele>496.082275</ele>
        <time>2018-11-09T11:20:08Z</time>
      </trkpt>
      <trkpt lat="43.82638" lon="5.3892">
        <ele>501.158295</ele>
        <time>2018-11-09T11:20:24Z</time>
      </trkpt>
      <trkpt lat="43.82657" lon="5.38927">
        <ele>501.075378</ele>
        <time>2018-11-09T11:20:39Z</time>
      </trkpt>
      <trkpt lat="43.82676" lon="5.38929">
        <ele>501.449615</ele>
        <time>2018-11-09T11:20:55Z</time>
      </trkpt>
      <trkpt lat="43.82693" lon="5.3893">
        <ele>501.43335</ele>
        <time>2018-11-09T11:21:11Z</time>
      </trkpt>
      <trkpt lat="43.82716" lon="5.38931">
        <ele>501.400177</ele>
        <time>2018-11-09T11:21:26Z</time>
      </trkpt>
      <trkpt lat="43.82734" lon="5.3893">
        <ele>501.855743</ele>
        <time>2018-11-09T11:21:42Z</time>
      </trkpt>
      <trkpt lat="43.82753" lon="5.38927">
        <ele>502.571411</ele>
        <time>2018-11-09T11:21:57Z</time>
      </trkpt>
      <trkpt lat="43.82771" lon="5.38939">
        <ele>499.223938</ele>
        <time>2018-11-09T11:22:13Z</time>
      </trkpt>
      <trkpt lat="43.82791" lon="5.38949">
        <ele>496.595734</ele>
        <time>2018-11-09T11:22:29Z</time>
      </trkpt>
      <trkpt lat="43.8281" lon="5.38953">
        <ele>495.341309</ele>
        <time>2018-11-09T11:22:44Z</time>
      </trkpt>
      <trkpt lat="43.8283" lon="5.38953">
        <ele>494.924622</ele>
        <time>2018-11-09T11:22:59Z</time>
      </trkpt>
      <trkpt lat="43.82844" lon="5.38966">
        <ele>493.464783</ele>
        <time>2018-11-09T11:23:14Z</time>
      </trkpt>
      <trkpt lat="43.82862" lon="5.38976">
        <ele>493.177368</ele>
        <time>2018-11-09T11:23:29Z</time>
      </trkpt>
      <trkpt lat="43.82876" lon="5.3899">
        <ele>492.119537</ele>
        <time>2018-11-09T11:23:45Z</time>
      </trkpt>
      <trkpt lat="43.82892" lon="5.39001">
        <ele>491.743347</ele>
        <time>2018-11-09T11:24:00Z</time>
      </trkpt>
      <trkpt lat="43.82904" lon="5.39021">
        <ele>490.413452</ele>
        <time>2018-11-09T11:24:15Z</time>
      </trkpt>
      <trkpt lat="43.82915" lon="5.39041">
        <ele>490.303253</ele>
        <time>2018-11-09T11:24:30Z</time>
      </trkpt>
      <trkpt lat="43.82928" lon="5.39059">
        <ele>492.001434</ele>
        <time>2018-11-09T11:24:46Z</time>
      </trkpt>
      <trkpt lat="43.82936" lon="5.3908">
        <ele>492.233154</ele>
        <time>2018-11-09T11:25:01Z</time>
      </trkpt>
      <trkpt lat="43.82948" lon="5.39099">
        <ele>493.008148</ele>
        <time>2018-11-09T11:25:17Z</time>
      </trkpt>
      <trkpt lat="43.82962" lon="5.39112">
        <ele>495.240417</ele>
        <time>2018-11-09T11:25:32Z</time>
      </trkpt>
      <trkpt lat="43.82974" lon="5.39128">
        <ele>496.922363</ele>
        <time>2018-11-09T11:25:47Z</time>
      </trkpt>
      <trkpt lat="43.8298" lon="5.39149">
        <ele>496.38031</ele>
        <time>2018-11-09T11:26:02Z</time>
      </trkpt>
      <trkpt lat="43.82975" lon="5.39171">
        <ele>492.13324</ele>
        <time>2018-11-09T11:26:18Z</time>
      </trkpt>
      <trkpt lat="43.82977" lon="5.39196">
        <ele>489.56781</ele>
        <time>2018-11-09T11:26:33Z</time>
      </trkpt>
      <trkpt lat="43.82987" lon="5.3922">
        <ele>490.070465</ele>
        <time>2018-11-09T11:26:49Z</time>
      </trkpt>
      <trkpt lat="43.82999" lon="5.39231">
        <ele>493.00238</ele>
        <time>2018-11-09T11:27:25Z</time>
      </trkpt>
      <trkpt lat="43.83016" lon="5.39238">
        <ele>496.455322</ele>
        <time>2018-11-09T11:27:40Z</time>
      </trkpt>
      <trkpt lat="43.83029" lon="5.39257">
        <ele>496.346436</ele>
        <time>2018-11-09T11:27:55Z</time>
      </trkpt>
      <trkpt lat="43.83034" lon="5.39286">
        <ele>491.141418</ele>
        <time>2018-11-09T11:28:11Z</time>
      </trkpt>
      <trkpt lat="43.83041" lon="5.39313">
        <ele>487.623535</ele>
        <time>2018-11-09T11:28:26Z</time>
      </trkpt>
      <trkpt lat="43.83057" lon="5.39329">
        <ele>490.253174</ele>
        <time>2018-11-09T11:28:42Z</time>
      </trkpt>
      <trkpt lat="43.83066" lon="5.39352">
        <ele>488.261292</ele>
        <time>2018-11-09T11:28:57Z</time>
      </trkpt>
      <trkpt lat="43.8307" lon="5.39376">
        <ele>484.236328</ele>
        <time>2018-11-09T11:29:13Z</time>
      </trkpt>
      <trkpt lat="43.83085" lon="5.39392">
        <ele>484.50766</ele>
        <time>2018-11-09T11:29:29Z</time>
      </trkpt>
      <trkpt lat="43.83103" lon="5.39406">
        <ele>486.751556</ele>
        <time>2018-11-09T11:29:45Z</time>
      </trkpt>
      <trkpt lat="43.83117" lon="5.39424">
        <ele>487.045197</ele>
        <time>2018-11-09T11:30:01Z</time>
      </trkpt>
      <trkpt lat="43.83136" lon="5.39442">
        <ele>488.355225</ele>
        <time>2018-11-09T11:30:17Z</time>
      </trkpt>
      <trkpt lat="43.83151" lon="5.39461">
        <ele>487.129822</ele>
        <time>2018-11-09T11:30:32Z</time>
      </trkpt>
      <trkpt lat="43.83171" lon="5.39471">
        <ele>488.477814</ele>
        <time>2018-11-09T11:30:48Z</time>
      </trkpt>
      <trkpt lat="43.83192" lon="5.39483">
        <ele>488.020172</ele>
        <time>2018-11-09T11:31:03Z</time>
      </trkpt>
      <trkpt lat="43.83209" lon="5.395">
        <ele>486.044556</ele>
        <time>2018-11-09T11:31:19Z</time>
      </trkpt>
      <trkpt lat="43.83225" lon="5.39509">
        <ele>487.127228</ele>
        <time>2018-11-09T11:31:34Z</time>
      </trkpt>
      <trkpt lat="43.83244" lon="5.39524">
        <ele>487.311096</ele>
        <time>2018-11-09T11:31:49Z</time>
      </trkpt>
      <trkpt lat="43.83264" lon="5.39538">
        <ele>489.05072</ele>
        <time>2018-11-09T11:32:04Z</time>
      </trkpt>
      <trkpt lat="43.83281" lon="5.39553">
        <ele>491.21167</ele>
        <time>2018-11-09T11:32:20Z</time>
      </trkpt>
      <trkpt lat="43.83299" lon="5.39564">
        <ele>494.6875</ele>
        <time>2018-11-09T11:32:35Z</time>
      </trkpt>
      <trkpt lat="43.83305" lon="5.39594">
        <ele>492.029358</ele>
        <time>2018-11-09T11:32:51Z</time>
      </trkpt>
      <trkpt lat="43.83311" lon="5.39622">
        <ele>491.355682</ele>
        <time>2018-11-09T11:33:06Z</time>
      </trkpt>
      <trkpt lat="43.83302" lon="5.39649">
        <ele>485.473267</ele>
        <time>2018-11-09T11:33:22Z</time>
      </trkpt>
      <trkpt lat="43.83307" lon="5.39667">
        <ele>485.419159</ele>
        <time>2018-11-09T11:33:37Z</time>
      </trkpt>
      <trkpt lat="43.83305" lon="5.39686">
        <ele>485.006531</ele>
        <time>2018-11-09T11:34:15Z</time>
      </trkpt>
      <trkpt lat="43.83296" lon="5.39673">
        <ele>481.606689</ele>
        <time>2018-11-09T11:34:31Z</time>
      </trkpt>
      <trkpt lat="43.83282" lon="5.3967">
        <ele>476.750397</ele>
        <time>2018-11-09T11:34:57Z</time>
      </trkpt>
      <trkpt lat="43.83287" lon="5.39644">
        <ele>480.645203</ele>
        <time>2018-11-09T11:35:12Z</time>
      </trkpt>
      <trkpt lat="43.83299" lon="5.39637">
        <ele>485.710205</ele>
        <time>2018-11-09T11:35:32Z</time>
      </trkpt>
      <trkpt lat="43.83287" lon="5.39646">
        <ele>480.646667</ele>
        <time>2018-11-09T11:35:52Z</time>
      </trkpt>
      <trkpt lat="43.83283" lon="5.39669">
        <ele>476.925842</ele>
        <time>2018-11-09T11:36:08Z</time>
      </trkpt>
      <trkpt lat="43.83273" lon="5.39682">
        <ele>473.808044</ele>
        <time>2018-11-09T11:36:25Z</time>
      </trkpt>
      <trkpt lat="43.83272" lon="5.39703">
        <ele>474.326538</ele>
        <time>2018-11-09T11:36:41Z</time>
      </trkpt>
      <trkpt lat="43.83274" lon="5.3973">
        <ele>475.930145</ele>
        <time>2018-11-09T11:36:56Z</time>
      </trkpt>
      <trkpt lat="43.8327" lon="5.39748">
        <ele>475.51297</ele>
        <time>2018-11-09T11:37:41Z</time>
      </trkpt>
      <trkpt lat="43.83257" lon="5.39741">
        <ele>471.557617</ele>
        <time>2018-11-09T11:38:33Z</time>
      </trkpt>
      <trkpt lat="43.83257" lon="5.3972">
        <ele>470.417603</ele>
        <time>2018-11-09T11:38:48Z</time>
      </trkpt>
      <trkpt lat="43.8326" lon="5.39701">
        <ele>470.335327</ele>
        <time>2018-11-09T11:39:03Z</time>
      </trkpt>
      <trkpt lat="43.83257" lon="5.39682">
        <ele>468.37735</ele>
        <time>2018-11-09T11:39:34Z</time>
      </trkpt>
      <trkpt lat="43.83263" lon="5.39664">
        <ele>470.030273</ele>
        <time>2018-11-09T11:40:12Z</time>
      </trkpt>
      <trkpt lat="43.83257" lon="5.39647">
        <ele>470.045441</ele>
        <time>2018-11-09T11:41:04Z</time>
      </trkpt>
      <trkpt lat="43.8327" lon="5.39652">
        <ele>474.031158</ele>
        <time>2018-11-09T11:42:30Z</time>
      </trkpt>
      <trkpt lat="43.83266" lon="5.39634">
        <ele>474.904236</ele>
        <time>2018-11-09T11:42:53Z</time>
      </trkpt>
      <trkpt lat="43.8328" lon="5.39631">
        <ele>479.998199</ele>
        <time>2018-11-09T11:43:39Z</time>
      </trkpt>
      <trkpt lat="43.83278" lon="5.39613">
        <ele>481.46344</ele>
        <time>2018-11-09T11:44:28Z</time>
      </trkpt>
      <trkpt lat="43.83265" lon="5.39607">
        <ele>477.593201</ele>
        <time>2018-11-09T11:45:04Z</time>
      </trkpt>
      <trkpt lat="43.83252" lon="5.39603">
        <ele>473.973297</ele>
        <time>2018-11-09T11:45:28Z</time>
      </trkpt>
      <trkpt lat="43.83245" lon="5.3962">
        <ele>471.21814</ele>
        <time>2018-11-09T11:46:06Z</time>
      </trkpt>
      <trkpt lat="43.83238" lon="5.39637">
        <ele>469.770111</ele>
        <time>2018-11-09T11:46:29Z</time>
      </trkpt>
      <trkpt lat="43.83235" lon="5.39655">
        <ele>468.499634</ele>
        <time>2018-11-09T11:46:46Z</time>
      </trkpt>
      <trkpt lat="43.83237" lon="5.39675">
        <ele>467.64093</ele>
        <time>2018-11-09T11:47:13Z</time>
      </trkpt>
      <trkpt lat="43.83227" lon="5.39693">
        <ele>469.899719</ele>
        <time>2018-11-09T11:47:28Z</time>
      </trkpt>
      <trkpt lat="43.83235" lon="5.39717">
        <ele>469.80481</ele>
        <time>2018-11-09T11:47:44Z</time>
      </trkpt>
      <trkpt lat="43.83242" lon="5.39735">
        <ele>469.885223</ele>
        <time>2018-11-09T11:47:59Z</time>
      </trkpt>
      <trkpt lat="43.83245" lon="5.39774">
        <ele>471.12326</ele>
        <time>2018-11-09T11:48:14Z</time>
      </trkpt>
      <trkpt lat="43.83262" lon="5.3978">
        <ele>473.538757</ele>
        <time>2018-11-09T11:48:29Z</time>
      </trkpt>
      <trkpt lat="43.8327" lon="5.39795">
        <ele>475.493378</ele>
        <time>2018-11-09T11:48:51Z</time>
      </trkpt>
      <trkpt lat="43.83283" lon="5.39807">
        <ele>478.017395</ele>
        <time>2018-11-09T11:49:06Z</time>
      </trkpt>
      <trkpt lat="43.8329" lon="5.39825">
        <ele>479.036713</ele>
        <time>2018-11-09T11:49:23Z</time>
      </trkpt>
      <trkpt lat="43.83306" lon="5.39839">
        <ele>481.308441</ele>
        <time>2018-11-09T11:49:39Z</time>
      </trkpt>
      <trkpt lat="43.83308" lon="5.39869">
        <ele>481.433197</ele>
        <time>2018-11-09T11:49:55Z</time>
      </trkpt>
      <trkpt lat="43.83303" lon="5.39891">
        <ele>480.87323</ele>
        <time>2018-11-09T11:50:11Z</time>
      </trkpt>
      <trkpt lat="43.83312" lon="5.39914">
        <ele>481.273132</ele>
        <time>2018-11-09T11:50:26Z</time>
      </trkpt>
      <trkpt lat="43.83312" lon="5.39938">
        <ele>481.202179</ele>
        <time>2018-11-09T11:50:42Z</time>
      </trkpt>
      <trkpt lat="43.83317" lon="5.39958">
        <ele>480.793335</ele>
        <time>2018-11-09T11:50:57Z</time>
      </trkpt>
      <trkpt lat="43.83324" lon="5.39977">
        <ele>479.634521</ele>
        <time>2018-11-09T11:51:13Z</time>
      </trkpt>
      <trkpt lat="43.83332" lon="5.39997">
        <ele>477.460724</ele>
        <time>2018-11-09T11:51:28Z</time>
      </trkpt>
      <trkpt lat="43.83338" lon="5.40024">
        <ele>478.901398</ele>
        <time>2018-11-09T11:51:44Z</time>
      </trkpt>
      <trkpt lat="43.83329" lon="5.40039">
        <ele>478.534271</ele>
        <time>2018-11-09T11:52:39Z</time>
      </trkpt>
      <trkpt lat="43.83343" lon="5.40058">
        <ele>481.070587</ele>
        <time>2018-11-09T11:52:54Z</time>
      </trkpt>
      <trkpt lat="43.83339" lon="5.40077">
        <ele>479.839539</ele>
        <time>2018-11-09T11:53:15Z</time>
      </trkpt>
      <trkpt lat="43.83344" lon="5.40094">
        <ele>481.216522</ele>
        <time>2018-11-09T11:53:44Z</time>
      </trkpt>
      <trkpt lat="43.83351" lon="5.40116">
        <ele>482.529968</ele>
        <time>2018-11-09T11:53:59Z</time>
      </trkpt>
      <trkpt lat="43.83353" lon="5.40135">
        <ele>482.485229</ele>
        <time>2018-11-09T11:54:15Z</time>
      </trkpt>
      <trkpt lat="43.83355" lon="5.40161">
        <ele>481.944214</ele>
        <time>2018-11-09T11:54:31Z</time>
      </trkpt>
      <trkpt lat="43.8336" lon="5.40189">
        <ele>483.406311</ele>
        <time>2018-11-09T11:54:47Z</time>
      </trkpt>
      <trkpt lat="43.83367" lon="5.40213">
        <ele>484.544373</ele>
        <time>2018-11-09T11:55:03Z</time>
      </trkpt>
      <trkpt lat="43.83377" lon="5.40236">
        <ele>484.759277</ele>
        <time>2018-11-09T11:55:19Z</time>
      </trkpt>
      <trkpt lat="43.83387" lon="5.40253">
        <ele>484.112366</ele>
        <time>2018-11-09T11:55:34Z</time>
      </trkpt>
      <trkpt lat="43.83393" lon="5.40272">
        <ele>483.697937</ele>
        <time>2018-11-09T11:55:49Z</time>
      </trkpt>
      <trkpt lat="43.83399" lon="5.40295">
        <ele>482.646515</ele>
        <time>2018-11-09T11:56:05Z</time>
      </trkpt>
      <trkpt lat="43.83401" lon="5.40318">
        <ele>481.684387</ele>
        <time>2018-11-09T11:56:20Z</time>
      </trkpt>
      <trkpt lat="43.83407" lon="5.40339">
        <ele>480.13504</ele>
        <time>2018-11-09T11:56:36Z</time>
      </trkpt>
      <trkpt lat="43.83414" lon="5.40359">
        <ele>480.561401</ele>
        <time>2018-11-09T11:56:51Z</time>
      </trkpt>
      <trkpt lat="43.8342" lon="5.4038">
        <ele>482.03363</ele>
        <time>2018-11-09T11:57:07Z</time>
      </trkpt>
      <trkpt lat="43.8343" lon="5.40395">
        <ele>483.048126</ele>
        <time>2018-11-09T11:57:22Z</time>
      </trkpt>
      <trkpt lat="43.83442" lon="5.40412">
        <ele>482.599976</ele>
        <time>2018-11-09T11:57:38Z</time>
      </trkpt>
      <trkpt lat="43.83458" lon="5.40423">
        <ele>481.309326</ele>
        <time>2018-11-09T11:57:54Z</time>
      </trkpt>
      <trkpt lat="43.83473" lon="5.40429">
        <ele>479.782867</ele>
        <time>2018-11-09T11:58:19Z</time>
      </trkpt>
      <trkpt lat="43.83459" lon="5.40431">
        <ele>482.201477</ele>
        <time>2018-11-09T12:00:22Z</time>
      </trkpt>
      <trkpt lat="43.83445" lon="5.40426">
        <ele>483.508728</ele>
        <time>2018-11-09T12:00:40Z</time>
      </trkpt>
      <trkpt lat="43.83432" lon="5.40414">
        <ele>483.921143</ele>
        <time>2018-11-09T12:00:55Z</time>
      </trkpt>
      <trkpt lat="43.83414" lon="5.40403">
        <ele>485.42981</ele>
        <time>2018-11-09T12:01:11Z</time>
      </trkpt>
      <trkpt lat="43.83404" lon="5.40386">
        <ele>486.827118</ele>
        <time>2018-11-09T12:01:27Z</time>
      </trkpt>
      <trkpt lat="43.8339" lon="5.40358">
        <ele>487.423767</ele>
        <time>2018-11-09T12:01:43Z</time>
      </trkpt>
      <trkpt lat="43.8338" lon="5.40338">
        <ele>487.373718</ele>
        <time>2018-11-09T12:01:59Z</time>
      </trkpt>
      <trkpt lat="43.8337" lon="5.40322">
        <ele>488.69928</ele>
        <time>2018-11-09T12:02:14Z</time>
      </trkpt>
      <trkpt lat="43.83358" lon="5.40312">
        <ele>490.574646</ele>
        <time>2018-11-09T12:02:30Z</time>
      </trkpt>
      <trkpt lat="43.83346" lon="5.40299">
        <ele>491.537537</ele>
        <time>2018-11-09T12:02:46Z</time>
      </trkpt>
      <trkpt lat="43.83336" lon="5.40285">
        <ele>491.163239</ele>
        <time>2018-11-09T12:03:01Z</time>
      </trkpt>
      <trkpt lat="43.83327" lon="5.40267">
        <ele>490.890564</ele>
        <time>2018-11-09T12:03:16Z</time>
      </trkpt>
      <trkpt lat="43.83318" lon="5.40249">
        <ele>490.824402</ele>
        <time>2018-11-09T12:03:31Z</time>
      </trkpt>
      <trkpt lat="43.83309" lon="5.4023">
        <ele>491.516602</ele>
        <time>2018-11-09T12:03:47Z</time>
      </trkpt>
      <trkpt lat="43.83297" lon="5.40217">
        <ele>493.724426</ele>
        <time>2018-11-09T12:04:03Z</time>
      </trkpt>
      <trkpt lat="43.83288" lon="5.402">
        <ele>494.501953</ele>
        <time>2018-11-09T12:04:19Z</time>
      </trkpt>
      <trkpt lat="43.83277" lon="5.40188">
        <ele>496.511353</ele>
        <time>2018-11-09T12:04:35Z</time>
      </trkpt>
      <trkpt lat="43.83264" lon="5.40184">
        <ele>500.18454</ele>
        <time>2018-11-09T12:04:56Z</time>
      </trkpt>
      <trkpt lat="43.8325" lon="5.40184">
        <ele>504.277344</ele>
        <time>2018-11-09T12:05:15Z</time>
      </trkpt>
      <trkpt lat="43.83238" lon="5.40193">
        <ele>508.28717</ele>
        <time>2018-11-09T12:05:38Z</time>
      </trkpt>
      <trkpt lat="43.83225" lon="5.40202">
        <ele>512.002869</ele>
        <time>2018-11-09T12:05:57Z</time>
      </trkpt>
      <trkpt lat="43.83211" lon="5.40206">
        <ele>515.2854</ele>
        <time>2018-11-09T12:06:17Z</time>
      </trkpt>
      <trkpt lat="43.83198" lon="5.40214">
        <ele>518.505371</ele>
        <time>2018-11-09T12:06:32Z</time>
      </trkpt>
      <trkpt lat="43.83188" lon="5.40227">
        <ele>520.998657</ele>
        <time>2018-11-09T12:06:52Z</time>
      </trkpt>
      <trkpt lat="43.83174" lon="5.40232">
        <ele>523.548767</ele>
        <time>2018-11-09T12:07:11Z</time>
      </trkpt>
      <trkpt lat="43.8316" lon="5.4024">
        <ele>526.604431</ele>
        <time>2018-11-09T12:07:30Z</time>
      </trkpt>
      <trkpt lat="43.83149" lon="5.4025">
        <ele>529.770813</ele>
        <time>2018-11-09T12:08:00Z</time>
      </trkpt>
      <trkpt lat="43.83139" lon="5.40264">
        <ele>533.827209</ele>
        <time>2018-11-09T12:08:18Z</time>
      </trkpt>
      <trkpt lat="43.83127" lon="5.40279">
        <ele>537.726196</ele>
        <time>2018-11-09T12:08:33Z</time>
      </trkpt>
      <trkpt lat="43.83118" lon="5.40293">
        <ele>540.291687</ele>
        <time>2018-11-09T12:08:53Z</time>
      </trkpt>
      <trkpt lat="43.83114" lon="5.40311">
        <ele>541.790222</ele>
        <time>2018-11-09T12:09:15Z</time>
      </trkpt>
      <trkpt lat="43.83106" lon="5.40327">
        <ele>543.192749</ele>
        <time>2018-11-09T12:09:34Z</time>
      </trkpt>
      <trkpt lat="43.83095" lon="5.40339">
        <ele>544.511047</ele>
        <time>2018-11-09T12:10:08Z</time>
      </trkpt>
      <trkpt lat="43.83091" lon="5.40357">
        <ele>545.931824</ele>
        <time>2018-11-09T12:10:25Z</time>
      </trkpt>
      <trkpt lat="43.8308" lon="5.40369">
        <ele>547.377747</ele>
        <time>2018-11-09T12:10:42Z</time>
      </trkpt>
      <trkpt lat="43.83069" lon="5.4038">
        <ele>549.920532</ele>
        <time>2018-11-09T12:10:58Z</time>
      </trkpt>
      <trkpt lat="43.8306" lon="5.40396">
        <ele>551.910339</ele>
        <time>2018-11-09T12:11:15Z</time>
      </trkpt>
      <trkpt lat="43.8305" lon="5.4041">
        <ele>553.721069</ele>
        <time>2018-11-09T12:11:31Z</time>
      </trkpt>
      <trkpt lat="43.83042" lon="5.40394">
        <ele>554.866455</ele>
        <time>2018-11-09T12:11:56Z</time>
      </trkpt>
      <trkpt lat="43.83037" lon="5.40376">
        <ele>555.58551</ele>
        <time>2018-11-09T12:12:13Z</time>
      </trkpt>
      <trkpt lat="43.8304" lon="5.40356">
        <ele>554.922913</ele>
        <time>2018-11-09T12:12:29Z</time>
      </trkpt>
      <trkpt lat="43.8304" lon="5.40336">
        <ele>554.869202</ele>
        <time>2018-11-09T12:12:45Z</time>
      </trkpt>
      <trkpt lat="43.83043" lon="5.40317">
        <ele>554.423096</ele>
        <time>2018-11-09T12:13:00Z</time>
      </trkpt>
      <trkpt lat="43.83044" lon="5.40296">
        <ele>554.21167</ele>
        <time>2018-11-09T12:13:16Z</time>
      </trkpt>
      <trkpt lat="43.83046" lon="5.40275">
        <ele>554.007751</ele>
        <time>2018-11-09T12:13:31Z</time>
      </trkpt>
      <trkpt lat="43.83046" lon="5.40256">
        <ele>554.138184</ele>
        <time>2018-11-09T12:13:47Z</time>
      </trkpt>
      <trkpt lat="43.83046" lon="5.40236">
        <ele>554.492188</ele>
        <time>2018-11-09T12:14:04Z</time>
      </trkpt>
      <trkpt lat="43.83032" lon="5.40241">
        <ele>556.816895</ele>
        <time>2018-11-09T12:14:25Z</time>
      </trkpt>
      <trkpt lat="43.8302" lon="5.40253">
        <ele>559.171143</ele>
        <time>2018-11-09T12:14:40Z</time>
      </trkpt>
      <trkpt lat="43.83008" lon="5.40265">
        <ele>561.605591</ele>
        <time>2018-11-09T12:14:56Z</time>
      </trkpt>
      <trkpt lat="43.82996" lon="5.40275">
        <ele>563.265503</ele>
        <time>2018-11-09T12:15:12Z</time>
      </trkpt>
      <trkpt lat="43.82983" lon="5.40268">
        <ele>562.950623</ele>
        <time>2018-11-09T12:16:10Z</time>
      </trkpt>
      <trkpt lat="43.82964" lon="5.40267">
        <ele>562.610657</ele>
        <time>2018-11-09T12:16:25Z</time>
      </trkpt>
      <trkpt lat="43.82942" lon="5.40261">
        <ele>561.77063</ele>
        <time>2018-11-09T12:16:40Z</time>
      </trkpt>
      <trkpt lat="43.82923" lon="5.40248">
        <ele>559.918579</ele>
        <time>2018-11-09T12:16:56Z</time>
      </trkpt>
      <trkpt lat="43.82908" lon="5.40243">
        <ele>557.641113</ele>
        <time>2018-11-09T12:17:11Z</time>
      </trkpt>
      <trkpt lat="43.82895" lon="5.40236">
        <ele>554.76709</ele>
        <time>2018-11-09T12:17:27Z</time>
      </trkpt>
      <trkpt lat="43.82873" lon="5.40245">
        <ele>553.822998</ele>
        <time>2018-11-09T12:17:43Z</time>
      </trkpt>
      <trkpt lat="43.82857" lon="5.40264">
        <ele>555.434875</ele>
        <time>2018-11-09T12:17:59Z</time>
      </trkpt>
      <trkpt lat="43.82844" lon="5.40283">
        <ele>557.874084</ele>
        <time>2018-11-09T12:18:15Z</time>
      </trkpt>
      <trkpt lat="43.82831" lon="5.40297">
        <ele>559.894897</ele>
        <time>2018-11-09T12:18:30Z</time>
      </trkpt>
      <trkpt lat="43.82812" lon="5.40304">
        <ele>559.00415</ele>
        <time>2018-11-09T12:18:45Z</time>
      </trkpt>
      <trkpt lat="43.82797" lon="5.40315">
        <ele>559.155396</ele>
        <time>2018-11-09T12:19:01Z</time>
      </trkpt>
      <trkpt lat="43.82781" lon="5.4033">
        <ele>559.392822</ele>
        <time>2018-11-09T12:19:17Z</time>
      </trkpt>
      <trkpt lat="43.82767" lon="5.40347">
        <ele>559.83374</ele>
        <time>2018-11-09T12:19:32Z</time>
      </trkpt>
      <trkpt lat="43.82752" lon="5.40368">
        <ele>561.41626</ele>
        <time>2018-11-09T12:19:48Z</time>
      </trkpt>
      <trkpt lat="43.8274" lon="5.40381">
        <ele>563.719604</ele>
        <time>2018-11-09T12:20:03Z</time>
      </trkpt>
      <trkpt lat="43.82724" lon="5.40391">
        <ele>564.986572</ele>
        <time>2018-11-09T12:20:18Z</time>
      </trkpt>
      <trkpt lat="43.82703" lon="5.404">
        <ele>565.410767</ele>
        <time>2018-11-09T12:20:34Z</time>
      </trkpt>
      <trkpt lat="43.82683" lon="5.4042">
        <ele>565.573547</ele>
        <time>2018-11-09T12:20:49Z</time>
      </trkpt>
      <trkpt lat="43.82668" lon="5.40432">
        <ele>566.221313</ele>
        <time>2018-11-09T12:21:04Z</time>
      </trkpt>
      <trkpt lat="43.82649" lon="5.40443">
        <ele>571.336548</ele>
        <time>2018-11-09T12:21:20Z</time>
      </trkpt>
      <trkpt lat="43.82634" lon="5.40426">
        <ele>573.625</ele>
        <time>2018-11-09T12:21:35Z</time>
      </trkpt>
      <trkpt lat="43.82638" lon="5.40394">
        <ele>572.6073</ele>
        <time>2018-11-09T12:21:50Z</time>
      </trkpt>
      <trkpt lat="43.82646" lon="5.40367">
        <ele>570.87561</ele>
        <time>2018-11-09T12:22:06Z</time>
      </trkpt>
      <trkpt lat="43.8265" lon="5.40349">
        <ele>570.074463</ele>
        <time>2018-11-09T12:22:23Z</time>
      </trkpt>
      <trkpt lat="43.82649" lon="5.40328">
        <ele>571.019958</ele>
        <time>2018-11-09T12:22:39Z</time>
      </trkpt>
      <trkpt lat="43.82647" lon="5.40309">
        <ele>572.77948</ele>
        <time>2018-11-09T12:22:55Z</time>
      </trkpt>
      <trkpt lat="43.82645" lon="5.4029">
        <ele>574.429382</ele>
        <time>2018-11-09T12:23:11Z</time>
      </trkpt>
      <trkpt lat="43.82651" lon="5.4027">
        <ele>574.016418</ele>
        <time>2018-11-09T12:23:27Z</time>
      </trkpt>
      <trkpt lat="43.82657" lon="5.4025">
        <ele>574.040405</ele>
        <time>2018-11-09T12:23:42Z</time>
      </trkpt>
      <trkpt lat="43.82661" lon="5.40224">
        <ele>574.111023</ele>
        <time>2018-11-09T12:23:58Z</time>
      </trkpt>
      <trkpt lat="43.82655" lon="5.40197">
        <ele>576.061035</ele>
        <time>2018-11-09T12:24:14Z</time>
      </trkpt>
      <trkpt lat="43.82642" lon="5.40169">
        <ele>578.02063</ele>
        <time>2018-11-09T12:24:29Z</time>
      </trkpt>
      <trkpt lat="43.8263" lon="5.40145">
        <ele>577.856262</ele>
        <time>2018-11-09T12:24:45Z</time>
      </trkpt>
      <trkpt lat="43.82622" lon="5.40123">
        <ele>577.001831</ele>
        <time>2018-11-09T12:25:01Z</time>
      </trkpt>
      <trkpt lat="43.82612" lon="5.40101">
        <ele>575.935181</ele>
        <time>2018-11-09T12:25:16Z</time>
      </trkpt>
      <trkpt lat="43.82599" lon="5.4008">
        <ele>574.480774</ele>
        <time>2018-11-09T12:25:32Z</time>
      </trkpt>
      <trkpt lat="43.8258" lon="5.40064">
        <ele>572.720581</ele>
        <time>2018-11-09T12:25:48Z</time>
      </trkpt>
      <trkpt lat="43.82566" lon="5.40051">
        <ele>571.637878</ele>
        <time>2018-11-09T12:26:04Z</time>
      </trkpt>
      <trkpt lat="43.8256" lon="5.40079">
        <ele>574.560364</ele>
        <time>2018-11-09T12:26:20Z</time>
      </trkpt>
      <trkpt lat="43.82559" lon="5.40105">
        <ele>577.014709</ele>
        <time>2018-11-09T12:26:35Z</time>
      </trkpt>
      <trkpt lat="43.82559" lon="5.40131">
        <ele>579.366089</ele>
        <time>2018-11-09T12:26:50Z</time>
      </trkpt>
      <trkpt lat="43.82549" lon="5.4016">
        <ele>581.975525</ele>
        <time>2018-11-09T12:27:06Z</time>
      </trkpt>
      <trkpt lat="43.82531" lon="5.40179">
        <ele>583.644287</ele>
        <time>2018-11-09T12:27:22Z</time>
      </trkpt>
      <trkpt lat="43.82534" lon="5.40159">
        <ele>581.748657</ele>
        <time>2018-11-09T12:27:44Z</time>
      </trkpt>
      <trkpt lat="43.82532" lon="5.40133">
        <ele>579.382751</ele>
        <time>2018-11-09T12:27:59Z</time>
      </trkpt>
      <trkpt lat="43.82524" lon="5.40111">
        <ele>577.375122</ele>
        <time>2018-11-09T12:28:15Z</time>
      </trkpt>
      <trkpt lat="43.82514" lon="5.40084">
        <ele>575.061035</ele>
        <time>2018-11-09T12:28:30Z</time>
      </trkpt>
      <trkpt lat="43.82512" lon="5.40049">
        <ele>573.355591</ele>
        <time>2018-11-09T12:28:46Z</time>
      </trkpt>
      <trkpt lat="43.82516" lon="5.4002">
        <ele>571.670105</ele>
        <time>2018-11-09T12:29:01Z</time>
      </trkpt>
      <trkpt lat="43.82523" lon="5.39996">
        <ele>569.926758</ele>
        <time>2018-11-09T12:29:16Z</time>
      </trkpt>
      <trkpt lat="43.82527" lon="5.39969">
        <ele>568.160156</ele>
        <time>2018-11-09T12:29:32Z</time>
      </trkpt>
      <trkpt lat="43.82523" lon="5.39943">
        <ele>567.48407</ele>
        <time>2018-11-09T12:29:47Z</time>
      </trkpt>
      <trkpt lat="43.82537" lon="5.39923">
        <ele>563.794739</ele>
        <time>2018-11-09T12:30:03Z</time>
      </trkpt>
      <trkpt lat="43.82548" lon="5.399">
        <ele>560.062317</ele>
        <time>2018-11-09T12:30:19Z</time>
      </trkpt>
      <trkpt lat="43.82555" lon="5.39871">
        <ele>556.638306</ele>
        <time>2018-11-09T12:30:35Z</time>
      </trkpt>
      <trkpt lat="43.82561" lon="5.39853">
        <ele>554.0802</ele>
        <time>2018-11-09T12:30:55Z</time>
      </trkpt>
      <trkpt lat="43.82565" lon="5.39828">
        <ele>551.481689</ele>
        <time>2018-11-09T12:31:10Z</time>
      </trkpt>
      <trkpt lat="43.82566" lon="5.39798">
        <ele>550.072083</ele>
        <time>2018-11-09T12:31:26Z</time>
      </trkpt>
      <trkpt lat="43.82574" lon="5.39771">
        <ele>547.41748</ele>
        <time>2018-11-09T12:31:42Z</time>
      </trkpt>
      <trkpt lat="43.82583" lon="5.39746">
        <ele>544.973816</ele>
        <time>2018-11-09T12:31:58Z</time>
      </trkpt>
      <trkpt lat="43.82598" lon="5.39722">
        <ele>542.732483</ele>
        <time>2018-11-09T12:32:14Z</time>
      </trkpt>
      <trkpt lat="43.82606" lon="5.39699">
        <ele>540.655396</ele>
        <time>2018-11-09T12:32:29Z</time>
      </trkpt>
      <trkpt lat="43.82604" lon="5.39669">
        <ele>539.558472</ele>
        <time>2018-11-09T12:32:44Z</time>
      </trkpt>
      <trkpt lat="43.826" lon="5.39641">
        <ele>538.352356</ele>
        <time>2018-11-09T12:32:59Z</time>
      </trkpt>
      <trkpt lat="43.82612" lon="5.39616">
        <ele>534.281494</ele>
        <time>2018-11-09T12:33:15Z</time>
      </trkpt>
      <trkpt lat="43.82629" lon="5.3959">
        <ele>529.335327</ele>
        <time>2018-11-09T12:33:31Z</time>
      </trkpt>
      <trkpt lat="43.82639" lon="5.39563">
        <ele>525.816101</ele>
        <time>2018-11-09T12:33:47Z</time>
      </trkpt>
      <trkpt lat="43.82643" lon="5.39535">
        <ele>523.618896</ele>
        <time>2018-11-09T12:34:03Z</time>
      </trkpt>
      <trkpt lat="43.82642" lon="5.39507">
        <ele>521.99585</ele>
        <time>2018-11-09T12:34:19Z</time>
      </trkpt>
      <trkpt lat="43.82643" lon="5.39479">
        <ele>521.28302</ele>
        <time>2018-11-09T12:34:35Z</time>
      </trkpt>
      <trkpt lat="43.82642" lon="5.39451">
        <ele>521.038696</ele>
        <time>2018-11-09T12:34:50Z</time>
      </trkpt>
      <trkpt lat="43.82643" lon="5.39424">
        <ele>520.652466</ele>
        <time>2018-11-09T12:35:05Z</time>
      </trkpt>
      <trkpt lat="43.82645" lon="5.39396">
        <ele>520.942993</ele>
        <time>2018-11-09T12:35:21Z</time>
      </trkpt>
      <trkpt lat="43.82654" lon="5.39369">
        <ele>521.588623</ele>
        <time>2018-11-09T12:35:36Z</time>
      </trkpt>
      <trkpt lat="43.82657" lon="5.39341">
        <ele>522.41449</ele>
        <time>2018-11-09T12:35:51Z</time>
      </trkpt>
      <trkpt lat="43.82658" lon="5.39317">
        <ele>521.171326</ele>
        <time>2018-11-09T12:36:06Z</time>
      </trkpt>
      <trkpt lat="43.82659" lon="5.39288">
        <ele>518.668579</ele>
        <time>2018-11-09T12:36:22Z</time>
      </trkpt>
      <trkpt lat="43.82651" lon="5.39263">
        <ele>515.740723</ele>
        <time>2018-11-09T12:36:37Z</time>
      </trkpt>
      <trkpt lat="43.82639" lon="5.39249">
        <ele>512.911865</ele>
        <time>2018-11-09T12:36:52Z</time>
      </trkpt>
      <trkpt lat="43.82624" lon="5.39238">
        <ele>507.825531</ele>
        <time>2018-11-09T12:37:07Z</time>
      </trkpt>
      <trkpt lat="43.82603" lon="5.39238">
        <ele>506.090698</ele>
        <time>2018-11-09T12:37:23Z</time>
      </trkpt>
      <trkpt lat="43.82584" lon="5.39241">
        <ele>505.446228</ele>
        <time>2018-11-09T12:37:39Z</time>
      </trkpt>
      <trkpt lat="43.82581" lon="5.39262">
        <ele>508.713287</ele>
        <time>2018-11-09T12:37:55Z</time>
      </trkpt>
      <trkpt lat="43.82574" lon="5.39283">
        <ele>509.193756</ele>
        <time>2018-11-09T12:38:10Z</time>
      </trkpt>
      <trkpt lat="43.82572" lon="5.39312">
        <ele>512.063171</ele>
        <time>2018-11-09T12:38:25Z</time>
      </trkpt>
      <trkpt lat="43.82578" lon="5.39341">
        <ele>517.973145</ele>
        <time>2018-11-09T12:38:40Z</time>
      </trkpt>
      <trkpt lat="43.82582" lon="5.39368">
        <ele>520.060242</ele>
        <time>2018-11-09T12:38:56Z</time>
      </trkpt>
      <trkpt lat="43.8258" lon="5.39391">
        <ele>520.145386</ele>
        <time>2018-11-09T12:39:11Z</time>
      </trkpt>
      <trkpt lat="43.82576" lon="5.39415">
        <ele>518.727905</ele>
        <time>2018-11-09T12:39:26Z</time>
      </trkpt>
      <trkpt lat="43.82575" lon="5.39443">
        <ele>520.525574</ele>
        <time>2018-11-09T12:39:42Z</time>
      </trkpt>
      <trkpt lat="43.82578" lon="5.3947">
        <ele>523.935852</ele>
        <time>2018-11-09T12:39:57Z</time>
      </trkpt>
      <trkpt lat="43.8258" lon="5.39494">
        <ele>526.512268</ele>
        <time>2018-11-09T12:40:12Z</time>
      </trkpt>
      <trkpt lat="43.82572" lon="5.3951">
        <ele>525.739624</ele>
        <time>2018-11-09T12:40:37Z</time>
      </trkpt>
      <trkpt lat="43.82558" lon="5.39523">
        <ele>523.379395</ele>
        <time>2018-11-09T12:40:53Z</time>
      </trkpt>
      <trkpt lat="43.82543" lon="5.39533">
        <ele>521.353577</ele>
        <time>2018-11-09T12:41:09Z</time>
      </trkpt>
      <trkpt lat="43.82527" lon="5.39541">
        <ele>519.206543</ele>
        <time>2018-11-09T12:41:24Z</time>
      </trkpt>
      <trkpt lat="43.82515" lon="5.39564">
        <ele>522.230591</ele>
        <time>2018-11-09T12:41:40Z</time>
      </trkpt>
      <trkpt lat="43.82505" lon="5.39578">
        <ele>524.403259</ele>
        <time>2018-11-09T12:41:57Z</time>
      </trkpt>
      <trkpt lat="43.8249" lon="5.396">
        <ele>530.017273</ele>
        <time>2018-11-09T12:42:12Z</time>
      </trkpt>
      <trkpt lat="43.8249" lon="5.3958">
        <ele>523.95636</ele>
        <time>2018-11-09T12:42:29Z</time>
      </trkpt>
      <trkpt lat="43.82496" lon="5.3956">
        <ele>518.64563</ele>
        <time>2018-11-09T12:42:44Z</time>
      </trkpt>
      <trkpt lat="43.82501" lon="5.3954">
        <ele>512.776184</ele>
        <time>2018-11-09T12:43:00Z</time>
      </trkpt>
      <trkpt lat="43.82506" lon="5.39522">
        <ele>508.967041</ele>
        <time>2018-11-09T12:43:16Z</time>
      </trkpt>
      <trkpt lat="43.82511" lon="5.39501">
        <ele>504.86557</ele>
        <time>2018-11-09T12:43:31Z</time>
      </trkpt>
      <trkpt lat="43.82515" lon="5.39479">
        <ele>503.064453</ele>
        <time>2018-11-09T12:43:47Z</time>
      </trkpt>
      <trkpt lat="43.82506" lon="5.39493">
        <ele>501.687134</ele>
        <time>2018-11-09T12:44:06Z</time>
      </trkpt>
      <trkpt lat="43.82497" lon="5.39507">
        <ele>503.899292</ele>
        <time>2018-11-09T12:44:23Z</time>
      </trkpt>
      <trkpt lat="43.82481" lon="5.39522">
        <ele>511.718597</ele>
        <time>2018-11-09T12:44:39Z</time>
      </trkpt>
      <trkpt lat="43.82466" lon="5.39523">
        <ele>515.080383</ele>
        <time>2018-11-09T12:44:55Z</time>
      </trkpt>
      <trkpt lat="43.82471" lon="5.39498">
        <ele>509.720215</ele>
        <time>2018-11-09T12:45:10Z</time>
      </trkpt>
      <trkpt lat="43.82472" lon="5.39473">
        <ele>506.473877</ele>
        <time>2018-11-09T12:45:26Z</time>
      </trkpt>
      <trkpt lat="43.82475" lon="5.39454">
        <ele>502.845337</ele>
        <time>2018-11-09T12:45:43Z</time>
      </trkpt>
      <trkpt lat="43.82472" lon="5.39426">
        <ele>500.730865</ele>
        <time>2018-11-09T12:45:59Z</time>
      </trkpt>
      <trkpt lat="43.82471" lon="5.39406">
        <ele>498.844666</ele>
        <time>2018-11-09T12:46:14Z</time>
      </trkpt>
      <trkpt lat="43.82474" lon="5.39386">
        <ele>495.772552</ele>
        <time>2018-11-09T12:46:29Z</time>
      </trkpt>
      <trkpt lat="43.82471" lon="5.39367">
        <ele>495.24469</ele>
        <time>2018-11-09T12:46:46Z</time>
      </trkpt>
      <trkpt lat="43.82466" lon="5.39343">
        <ele>494.628693</ele>
        <time>2018-11-09T12:47:02Z</time>
      </trkpt>
      <trkpt lat="43.82464" lon="5.3932">
        <ele>493.629852</ele>
        <time>2018-11-09T12:47:17Z</time>
      </trkpt>
      <trkpt lat="43.82462" lon="5.39301">
        <ele>493.158264</ele>
        <time>2018-11-09T12:47:37Z</time>
      </trkpt>
      <trkpt lat="43.82459" lon="5.39283">
        <ele>492.677063</ele>
        <time>2018-11-09T12:47:53Z</time>
      </trkpt>
      <trkpt lat="43.82457" lon="5.39263">
        <ele>491.723999</ele>
        <time>2018-11-09T12:48:09Z</time>
      </trkpt>
      <trkpt lat="43.82458" lon="5.39239">
        <ele>489.574097</ele>
        <time>2018-11-09T12:48:24Z</time>
      </trkpt>
      <trkpt lat="43.82458" lon="5.39217">
        <ele>487.737122</ele>
        <time>2018-11-09T12:48:39Z</time>
      </trkpt>
      <trkpt lat="43.82457" lon="5.39198">
        <ele>486.277466</ele>
        <time>2018-11-09T12:49:03Z</time>
      </trkpt>
      <trkpt lat="43.82455" lon="5.39171">
        <ele>484.471313</ele>
        <time>2018-11-09T12:49:19Z</time>
      </trkpt>
      <trkpt lat="43.82454" lon="5.39153">
        <ele>482.363129</ele>
        <time>2018-11-09T12:49:34Z</time>
      </trkpt>
      <trkpt lat="43.82453" lon="5.3912">
        <ele>476.996643</ele>
        <time>2018-11-09T12:49:49Z</time>
      </trkpt>
      <trkpt lat="43.82456" lon="5.39093">
        <ele>471.257141</ele>
        <time>2018-11-09T12:50:05Z</time>
      </trkpt>
      <trkpt lat="43.82458" lon="5.39073">
        <ele>465.551605</ele>
        <time>2018-11-09T12:50:20Z</time>
      </trkpt>
      <trkpt lat="43.82455" lon="5.39053">
        <ele>461.065369</ele>
        <time>2018-11-09T12:50:37Z</time>
      </trkpt>
      <trkpt lat="43.82451" lon="5.39035">
        <ele>457.06842</ele>
        <time>2018-11-09T12:50:52Z</time>
      </trkpt>
      <trkpt lat="43.82444" lon="5.39015">
        <ele>452.423157</ele>
        <time>2018-11-09T12:51:07Z</time>
      </trkpt>
      <trkpt lat="43.82427" lon="5.39009">
        <ele>453.582275</ele>
        <time>2018-11-09T12:51:23Z</time>
      </trkpt>
      <trkpt lat="43.82411" lon="5.39014">
        <ele>459.034637</ele>
        <time>2018-11-09T12:51:39Z</time>
      </trkpt>
      <trkpt lat="43.82397" lon="5.39014">
        <ele>461.136566</ele>
        <time>2018-11-09T12:51:54Z</time>
      </trkpt>
      <trkpt lat="43.82383" lon="5.39013">
        <ele>463.257416</ele>
        <time>2018-11-09T12:52:09Z</time>
      </trkpt>
      <trkpt lat="43.82367" lon="5.39012">
        <ele>465.716003</ele>
        <time>2018-11-09T12:52:25Z</time>
      </trkpt>
      <trkpt lat="43.82351" lon="5.39011">
        <ele>467.832092</ele>
        <time>2018-11-09T12:52:40Z</time>
      </trkpt>
      <trkpt lat="43.82334" lon="5.39007">
        <ele>469.507965</ele>
        <time>2018-11-09T12:52:56Z</time>
      </trkpt>
      <trkpt lat="43.82319" lon="5.38998">
        <ele>467.055664</ele>
        <time>2018-11-09T12:53:12Z</time>
      </trkpt>
      <trkpt lat="43.82305" lon="5.38984">
        <ele>462.939484</ele>
        <time>2018-11-09T12:53:27Z</time>
      </trkpt>
      <trkpt lat="43.82296" lon="5.38961">
        <ele>455.660461</ele>
        <time>2018-11-09T12:53:42Z</time>
      </trkpt>
      <trkpt lat="43.8228" lon="5.38952">
        <ele>453.634583</ele>
        <time>2018-11-09T12:53:58Z</time>
      </trkpt>
      <trkpt lat="43.82265" lon="5.38953">
        <ele>454.86322</ele>
        <time>2018-11-09T12:54:18Z</time>
      </trkpt>
      <trkpt lat="43.82244" lon="5.38955">
        <ele>458.733521</ele>
        <time>2018-11-09T12:54:34Z</time>
      </trkpt>
      <trkpt lat="43.8223" lon="5.38954">
        <ele>464.015778</ele>
        <time>2018-11-09T12:54:51Z</time>
      </trkpt>
      <trkpt lat="43.82228" lon="5.38929">
        <ele>458.357544</ele>
        <time>2018-11-09T12:55:07Z</time>
      </trkpt>
      <trkpt lat="43.82226" lon="5.38909">
        <ele>454.993439</ele>
        <time>2018-11-09T12:55:22Z</time>
      </trkpt>
      <trkpt lat="43.82223" lon="5.3888">
        <ele>453.238007</ele>
        <time>2018-11-09T12:55:37Z</time>
      </trkpt>
      <trkpt lat="43.82219" lon="5.38851">
        <ele>451.328308</ele>
        <time>2018-11-09T12:55:52Z</time>
      </trkpt>
      <trkpt lat="43.82219" lon="5.38822">
        <ele>447.530792</ele>
        <time>2018-11-09T12:56:08Z</time>
      </trkpt>
      <trkpt lat="43.82214" lon="5.38789">
        <ele>444.082336</ele>
        <time>2018-11-09T12:56:24Z</time>
      </trkpt>
      <trkpt lat="43.82211" lon="5.38756">
        <ele>439.735931</ele>
        <time>2018-11-09T12:56:40Z</time>
      </trkpt>
      <trkpt lat="43.82213" lon="5.38731">
        <ele>435.379486</ele>
        <time>2018-11-09T12:56:55Z</time>
      </trkpt>
      <trkpt lat="43.82211" lon="5.38709">
        <ele>432.698547</ele>
        <time>2018-11-09T12:57:11Z</time>
      </trkpt>
      <trkpt lat="43.82197" lon="5.38685">
        <ele>433.05835</ele>
        <time>2018-11-09T12:57:27Z</time>
      </trkpt>
      <trkpt lat="43.82188" lon="5.38661">
        <ele>430.870453</ele>
        <time>2018-11-09T12:57:43Z</time>
      </trkpt>
      <trkpt lat="43.82176" lon="5.38639">
        <ele>429.12085</ele>
        <time>2018-11-09T12:57:58Z</time>
      </trkpt>
      <trkpt lat="43.82167" lon="5.38613">
        <ele>425.286102</ele>
        <time>2018-11-09T12:58:13Z</time>
      </trkpt>
      <trkpt lat="43.82167" lon="5.38589">
        <ele>420.070312</ele>
        <time>2018-11-09T12:58:29Z</time>
      </trkpt>
      <trkpt lat="43.82168" lon="5.38563">
        <ele>418.391388</ele>
        <time>2018-11-09T12:58:45Z</time>
      </trkpt>
      <trkpt lat="43.82174" lon="5.38534">
        <ele>417.341888</ele>
        <time>2018-11-09T12:59:00Z</time>
      </trkpt>
      <trkpt lat="43.82184" lon="5.38506">
        <ele>416.088745</ele>
        <time>2018-11-09T12:59:16Z</time>
      </trkpt>
      <trkpt lat="43.82206" lon="5.38513">
        <ele>414.795288</ele>
        <time>2018-11-09T12:59:31Z</time>
      </trkpt>
      <trkpt lat="43.82228" lon="5.38515">
        <ele>413.415009</ele>
        <time>2018-11-09T12:59:47Z</time>
      </trkpt>
      <trkpt lat="43.82249" lon="5.38525">
        <ele>412.041016</ele>
        <time>2018-11-09T13:00:02Z</time>
      </trkpt>
      <trkpt lat="43.82268" lon="5.38528">
        <ele>419.513489</ele>
        <time>2018-11-09T13:00:18Z</time>
      </trkpt>
      <trkpt lat="43.82266" lon="5.38502">
        <ele>419.933807</ele>
        <time>2018-11-09T13:00:33Z</time>
      </trkpt>
      <trkpt lat="43.82264" lon="5.38474">
        <ele>420.305847</ele>
        <time>2018-11-09T13:00:49Z</time>
      </trkpt>
      <trkpt lat="43.82261" lon="5.38454">
        <ele>419.441986</ele>
        <time>2018-11-09T13:01:04Z</time>
      </trkpt>
      <trkpt lat="43.82249" lon="5.38431">
        <ele>414.631317</ele>
        <time>2018-11-09T13:01:19Z</time>
      </trkpt>
      <trkpt lat="43.82239" lon="5.38405">
        <ele>417.621033</ele>
        <time>2018-11-09T13:01:34Z</time>
      </trkpt>
      <trkpt lat="43.82229" lon="5.38386">
        <ele>419.926666</ele>
        <time>2018-11-09T13:01:50Z</time>
      </trkpt>
      <trkpt lat="43.82223" lon="5.38364">
        <ele>421.463623</ele>
        <time>2018-11-09T13:02:05Z</time>
      </trkpt>
      <trkpt lat="43.82229" lon="5.38346">
        <ele>423.392975</ele>
        <time>2018-11-09T13:02:28Z</time>
      </trkpt>
      <trkpt lat="43.82223" lon="5.3833">
        <ele>423.912781</ele>
        <time>2018-11-09T13:02:45Z</time>
      </trkpt>
      <trkpt lat="43.82218" lon="5.38308">
        <ele>425.624756</ele>
        <time>2018-11-09T13:03:01Z</time>
      </trkpt>
      <trkpt lat="43.82219" lon="5.38288">
        <ele>428.047943</ele>
        <time>2018-11-09T13:03:20Z</time>
      </trkpt>
      <trkpt lat="43.8221" lon="5.38273">
        <ele>426.415222</ele>
        <time>2018-11-09T13:03:44Z</time>
      </trkpt>
      <trkpt lat="43.82199" lon="5.38258">
        <ele>422.777283</ele>
        <time>2018-11-09T13:04:00Z</time>
      </trkpt>
      <trkpt lat="43.82187" lon="5.38245">
        <ele>417.00412</ele>
        <time>2018-11-09T13:04:16Z</time>
      </trkpt>
      <trkpt lat="43.82175" lon="5.38235">
        <ele>411.603546</ele>
        <time>2018-11-09T13:04:32Z</time>
      </trkpt>
      <trkpt lat="43.8217" lon="5.3821">
        <ele>409.102966</ele>
        <time>2018-11-09T13:04:48Z</time>
      </trkpt>
      <trkpt lat="43.82164" lon="5.38192">
        <ele>407.541595</ele>
        <time>2018-11-09T13:05:03Z</time>
      </trkpt>
      <trkpt lat="43.82164" lon="5.38172">
        <ele>407.670929</ele>
        <time>2018-11-09T13:05:19Z</time>
      </trkpt>
      <trkpt lat="43.82155" lon="5.38144">
        <ele>406.570679</ele>
        <time>2018-11-09T13:05:34Z</time>
      </trkpt>
      <trkpt lat="43.82151" lon="5.38124">
        <ele>406.084778</ele>
        <time>2018-11-09T13:05:49Z</time>
      </trkpt>
      <trkpt lat="43.82158" lon="5.38107">
        <ele>406.555145</ele>
        <time>2018-11-09T13:06:05Z</time>
      </trkpt>
      <trkpt lat="43.82147" lon="5.38096">
        <ele>405.604797</ele>
        <time>2018-11-09T13:06:44Z</time>
      </trkpt>
      <trkpt lat="43.82148" lon="5.38077">
        <ele>405.965088</ele>
        <time>2018-11-09T13:07:00Z</time>
      </trkpt>
      <trkpt lat="43.82147" lon="5.38053">
        <ele>407.160461</ele>
        <time>2018-11-09T13:07:16Z</time>
      </trkpt>
      <trkpt lat="43.82147" lon="5.38034">
        <ele>408.089966</ele>
        <time>2018-11-09T13:07:31Z</time>
      </trkpt>
      <trkpt lat="43.82148" lon="5.38014">
        <ele>409.2164</ele>
        <time>2018-11-09T13:07:48Z</time>
      </trkpt>
      <trkpt lat="43.82153" lon="5.37994">
        <ele>410.449524</ele>
        <time>2018-11-09T13:08:03Z</time>
      </trkpt>
      <trkpt lat="43.82154" lon="5.37969">
        <ele>410.259247</ele>
        <time>2018-11-09T13:08:19Z</time>
      </trkpt>
      <trkpt lat="43.82156" lon="5.3795">
        <ele>410.247894</ele>
        <time>2018-11-09T13:08:43Z</time>
      </trkpt>
      <trkpt lat="43.82151" lon="5.37932">
        <ele>409.438782</ele>
        <time>2018-11-09T13:09:00Z</time>
      </trkpt>
      <trkpt lat="43.82144" lon="5.37913">
        <ele>408.205139</ele>
        <time>2018-11-09T13:09:15Z</time>
      </trkpt>
      <trkpt lat="43.82136" lon="5.37894">
        <ele>405.386932</ele>
        <time>2018-11-09T13:09:30Z</time>
      </trkpt>
      <trkpt lat="43.82133" lon="5.37871">
        <ele>402.874481</ele>
        <time>2018-11-09T13:09:46Z</time>
      </trkpt>
      <trkpt lat="43.82132" lon="5.37851">
        <ele>400.763123</ele>
        <time>2018-11-09T13:10:01Z</time>
      </trkpt>
      <trkpt lat="43.82136" lon="5.37824">
        <ele>399.12323</ele>
        <time>2018-11-09T13:10:17Z</time>
      </trkpt>
      <trkpt lat="43.8214" lon="5.37805">
        <ele>398.540527</ele>
        <time>2018-11-09T13:10:32Z</time>
      </trkpt>
      <trkpt lat="43.82137" lon="5.37775">
        <ele>397.352753</ele>
        <time>2018-11-09T13:10:47Z</time>
      </trkpt>
      <trkpt lat="43.82138" lon="5.37752">
        <ele>396.434448</ele>
        <time>2018-11-09T13:11:03Z</time>
      </trkpt>
      <trkpt lat="43.82146" lon="5.3773">
        <ele>394.928253</ele>
        <time>2018-11-09T13:11:19Z</time>
      </trkpt>
      <trkpt lat="43.82158" lon="5.37704">
        <ele>391.764862</ele>
        <time>2018-11-09T13:11:35Z</time>
      </trkpt>
      <trkpt lat="43.82163" lon="5.37682">
        <ele>389.217041</ele>
        <time>2018-11-09T13:11:51Z</time>
      </trkpt>
      <trkpt lat="43.82171" lon="5.37663">
        <ele>388.893646</ele>
        <time>2018-11-09T13:12:06Z</time>
      </trkpt>
      <trkpt lat="43.82173" lon="5.37641">
        <ele>388.396667</ele>
        <time>2018-11-09T13:12:22Z</time>
      </trkpt>
      <trkpt lat="43.8218" lon="5.37621">
        <ele>390.312256</ele>
        <time>2018-11-09T13:12:37Z</time>
      </trkpt>
      <trkpt lat="43.82186" lon="5.37603">
        <ele>391.583801</ele>
        <time>2018-11-09T13:12:53Z</time>
      </trkpt>
      <trkpt lat="43.8219" lon="5.37579">
        <ele>391.706482</ele>
        <time>2018-11-09T13:13:09Z</time>
      </trkpt>
      <trkpt lat="43.82181" lon="5.37564">
        <ele>388.210327</ele>
        <time>2018-11-09T13:14:03Z</time>
      </trkpt>
      <trkpt lat="43.82188" lon="5.37539">
        <ele>390.195129</ele>
        <time>2018-11-09T13:14:19Z</time>
      </trkpt>
      <trkpt lat="43.82191" lon="5.37517">
        <ele>390.146423</ele>
        <time>2018-11-09T13:14:35Z</time>
      </trkpt>
      <trkpt lat="43.82202" lon="5.37501">
        <ele>390.904724</ele>
        <time>2018-11-09T13:14:51Z</time>
      </trkpt>
      <trkpt lat="43.82215" lon="5.37489">
        <ele>391.955292</ele>
        <time>2018-11-09T13:15:07Z</time>
      </trkpt>
      <trkpt lat="43.82226" lon="5.37468">
        <ele>391.231812</ele>
        <time>2018-11-09T13:15:22Z</time>
      </trkpt>
      <trkpt lat="43.82229" lon="5.3745">
        <ele>389.663208</ele>
        <time>2018-11-09T13:15:40Z</time>
      </trkpt>
      <trkpt lat="43.82223" lon="5.37433">
        <ele>389.429504</ele>
        <time>2018-11-09T13:15:58Z</time>
      </trkpt>
      <trkpt lat="43.82232" lon="5.37418">
        <ele>386.532867</ele>
        <time>2018-11-09T13:16:47Z</time>
      </trkpt>
      <trkpt lat="43.82236" lon="5.37398">
        <ele>385.151978</ele>
        <time>2018-11-09T13:17:02Z</time>
      </trkpt>
      <trkpt lat="43.82242" lon="5.37369">
        <ele>382.809204</ele>
        <time>2018-11-09T13:17:17Z</time>
      </trkpt>
      <trkpt lat="43.82254" lon="5.37345">
        <ele>378.891785</ele>
        <time>2018-11-09T13:17:33Z</time>
      </trkpt>
      <trkpt lat="43.82266" lon="5.37326">
        <ele>379.144897</ele>
        <time>2018-11-09T13:17:48Z</time>
      </trkpt>
      <trkpt lat="43.82274" lon="5.37304">
        <ele>380.561951</ele>
        <time>2018-11-09T13:18:04Z</time>
      </trkpt>
      <trkpt lat="43.82282" lon="5.37286">
        <ele>380.887207</ele>
        <time>2018-11-09T13:18:19Z</time>
      </trkpt>
      <trkpt lat="43.8229" lon="5.37264">
        <ele>380.547638</ele>
        <time>2018-11-09T13:18:35Z</time>
      </trkpt>
      <trkpt lat="43.82303" lon="5.37248">
        <ele>378.491089</ele>
        <time>2018-11-09T13:18:50Z</time>
      </trkpt>
      <trkpt lat="43.82302" lon="5.37228">
        <ele>378.877319</ele>
        <time>2018-11-09T13:19:09Z</time>
      </trkpt>
      <trkpt lat="43.82293" lon="5.37207">
        <ele>380.816833</ele>
        <time>2018-11-09T13:19:24Z</time>
      </trkpt>
      <trkpt lat="43.82296" lon="5.37187">
        <ele>380.471313</ele>
        <time>2018-11-09T13:19:40Z</time>
      </trkpt>
      <trkpt lat="43.823" lon="5.37164">
        <ele>379.624207</ele>
        <time>2018-11-09T13:19:55Z</time>
      </trkpt>
      <trkpt lat="43.82312" lon="5.37145">
        <ele>376.055481</ele>
        <time>2018-11-09T13:20:10Z</time>
      </trkpt>
      <trkpt lat="43.82318" lon="5.37123">
        <ele>373.629181</ele>
        <time>2018-11-09T13:20:25Z</time>
      </trkpt>
      <trkpt lat="43.82321" lon="5.37098">
        <ele>371.526245</ele>
        <time>2018-11-09T13:20:41Z</time>
      </trkpt>
      <trkpt lat="43.82312" lon="5.37071">
        <ele>371.475128</ele>
        <time>2018-11-09T13:20:57Z</time>
      </trkpt>
      <trkpt lat="43.82295" lon="5.37044">
        <ele>371.403992</ele>
        <time>2018-11-09T13:21:13Z</time>
      </trkpt>
      <trkpt lat="43.82285" lon="5.37026">
        <ele>370.560425</ele>
        <time>2018-11-09T13:21:29Z</time>
      </trkpt>
      <trkpt lat="43.8228" lon="5.37007">
        <ele>369.025024</ele>
        <time>2018-11-09T13:21:45Z</time>
      </trkpt>
      <trkpt lat="43.82271" lon="5.36986">
        <ele>368.45105</ele>
        <time>2018-11-09T13:22:01Z</time>
      </trkpt>
      <trkpt lat="43.8227" lon="5.36963">
        <ele>368.379944</ele>
        <time>2018-11-09T13:22:16Z</time>
      </trkpt>
      <trkpt lat="43.82271" lon="5.3694">
        <ele>368.315063</ele>
        <time>2018-11-09T13:22:32Z</time>
      </trkpt>
      <trkpt lat="43.82276" lon="5.36915">
        <ele>368.606659</ele>
        <time>2018-11-09T13:22:47Z</time>
      </trkpt>
      <trkpt lat="43.8228" lon="5.36892">
        <ele>369.703979</ele>
        <time>2018-11-09T13:23:02Z</time>
      </trkpt>
      <trkpt lat="43.8228" lon="5.36867">
        <ele>370.686584</ele>
        <time>2018-11-09T13:23:17Z</time>
      </trkpt>
      <trkpt lat="43.8228" lon="5.36843">
        <ele>371.578796</ele>
        <time>2018-11-09T13:23:32Z</time>
      </trkpt>
      <trkpt lat="43.8228" lon="5.36821">
        <ele>372.289246</ele>
        <time>2018-11-09T13:23:48Z</time>
      </trkpt>
      <trkpt lat="43.82281" lon="5.36799">
        <ele>372.852356</ele>
        <time>2018-11-09T13:24:03Z</time>
      </trkpt>
      <trkpt lat="43.82273" lon="5.36769">
        <ele>371.293091</ele>
        <time>2018-11-09T13:24:19Z</time>
      </trkpt>
      <trkpt lat="43.8227" lon="5.36748">
        <ele>370.2995</ele>
        <time>2018-11-09T13:24:35Z</time>
      </trkpt>
      <trkpt lat="43.82256" lon="5.36729">
        <ele>365.803131</ele>
        <time>2018-11-09T13:24:51Z</time>
      </trkpt>
      <trkpt lat="43.82252" lon="5.36709">
        <ele>364.554321</ele>
        <time>2018-11-09T13:25:06Z</time>
      </trkpt>
      <trkpt lat="43.82245" lon="5.36692">
        <ele>365.749298</ele>
        <time>2018-11-09T13:25:22Z</time>
      </trkpt>
      <trkpt lat="43.82242" lon="5.3667">
        <ele>366.699371</ele>
        <time>2018-11-09T13:25:38Z</time>
      </trkpt>
      <trkpt lat="43.82236" lon="5.3665">
        <ele>368.037781</ele>
        <time>2018-11-09T13:25:53Z</time>
      </trkpt>
      <trkpt lat="43.8223" lon="5.36633">
        <ele>369.334442</ele>
        <time>2018-11-09T13:26:13Z</time>
      </trkpt>
      <trkpt lat="43.82225" lon="5.36613">
        <ele>370.305084</ele>
        <time>2018-11-09T13:26:28Z</time>
      </trkpt>
      <trkpt lat="43.82218" lon="5.36596">
        <ele>371.400818</ele>
        <time>2018-11-09T13:26:44Z</time>
      </trkpt>
      <trkpt lat="43.82213" lon="5.36578">
        <ele>371.925964</ele>
        <time>2018-11-09T13:26:59Z</time>
      </trkpt>
      <trkpt lat="43.82212" lon="5.36556">
        <ele>370.015015</ele>
        <time>2018-11-09T13:27:14Z</time>
      </trkpt>
      <trkpt lat="43.82207" lon="5.36538">
        <ele>369.399353</ele>
        <time>2018-11-09T13:27:30Z</time>
      </trkpt>
      <trkpt lat="43.82203" lon="5.36516">
        <ele>367.958435</ele>
        <time>2018-11-09T13:27:45Z</time>
      </trkpt>
      <trkpt lat="43.82203" lon="5.36488">
        <ele>365.413147</ele>
        <time>2018-11-09T13:28:00Z</time>
      </trkpt>
      <trkpt lat="43.82196" lon="5.3646">
        <ele>363.888763</ele>
        <time>2018-11-09T13:28:15Z</time>
      </trkpt>
      <trkpt lat="43.82192" lon="5.36441">
        <ele>362.624268</ele>
        <time>2018-11-09T13:28:35Z</time>
      </trkpt>
      <trkpt lat="43.82186" lon="5.36422">
        <ele>361.333313</ele>
        <time>2018-11-09T13:28:51Z</time>
      </trkpt>
      <trkpt lat="43.82174" lon="5.36402">
        <ele>361.320892</ele>
        <time>2018-11-09T13:29:07Z</time>
      </trkpt>
      <trkpt lat="43.82171" lon="5.36381">
        <ele>361.247559</ele>
        <time>2018-11-09T13:29:22Z</time>
      </trkpt>
      <trkpt lat="43.8217" lon="5.36352">
        <ele>360.969482</ele>
        <time>2018-11-09T13:29:37Z</time>
      </trkpt>
      <trkpt lat="43.82173" lon="5.36329">
        <ele>360.119415</ele>
        <time>2018-11-09T13:29:52Z</time>
      </trkpt>
      <trkpt lat="43.82179" lon="5.36303">
        <ele>357.961884</ele>
        <time>2018-11-09T13:30:08Z</time>
      </trkpt>
      <trkpt lat="43.82177" lon="5.3627">
        <ele>356.245361</ele>
        <time>2018-11-09T13:30:23Z</time>
      </trkpt>
      <trkpt lat="43.82169" lon="5.36247">
        <ele>355.498413</ele>
        <time>2018-11-09T13:30:39Z</time>
      </trkpt>
      <trkpt lat="43.82153" lon="5.36233">
        <ele>358.008636</ele>
        <time>2018-11-09T13:30:54Z</time>
      </trkpt>
      <trkpt lat="43.82148" lon="5.36212">
        <ele>357.111389</ele>
        <time>2018-11-09T13:31:10Z</time>
      </trkpt>
      <trkpt lat="43.82141" lon="5.36186">
        <ele>355.715576</ele>
        <time>2018-11-09T13:31:25Z</time>
      </trkpt>
      <trkpt lat="43.82133" lon="5.36166">
        <ele>355.477356</ele>
        <time>2018-11-09T13:31:41Z</time>
      </trkpt>
      <trkpt lat="43.82122" lon="5.36148">
        <ele>356.925598</ele>
        <time>2018-11-09T13:31:57Z</time>
      </trkpt>
      <trkpt lat="43.82114" lon="5.36121">
        <ele>356.982483</ele>
        <time>2018-11-09T13:32:13Z</time>
      </trkpt>
      <trkpt lat="43.82105" lon="5.36097">
        <ele>357.251678</ele>
        <time>2018-11-09T13:32:29Z</time>
      </trkpt>
      <trkpt lat="43.82098" lon="5.36073">
        <ele>356.531494</ele>
        <time>2018-11-09T13:32:44Z</time>
      </trkpt>
      <trkpt lat="43.82092" lon="5.36049">
        <ele>354.476501</ele>
        <time>2018-11-09T13:33:00Z</time>
      </trkpt>
      <trkpt lat="43.8209" lon="5.36022">
        <ele>351.063263</ele>
        <time>2018-11-09T13:33:16Z</time>
      </trkpt>
      <trkpt lat="43.82075" lon="5.36002">
        <ele>351.167786</ele>
        <time>2018-11-09T13:33:32Z</time>
      </trkpt>
      <trkpt lat="43.82062" lon="5.35987">
        <ele>352.037292</ele>
        <time>2018-11-09T13:33:47Z</time>
      </trkpt>
      <trkpt lat="43.82049" lon="5.35961">
        <ele>351.202881</ele>
        <time>2018-11-09T13:34:02Z</time>
      </trkpt>
      <trkpt lat="43.82067" lon="5.3597">
        <ele>348.714294</ele>
        <time>2018-11-09T13:34:18Z</time>
      </trkpt>
      <trkpt lat="43.82085" lon="5.3598">
        <ele>346.47876</ele>
        <time>2018-11-09T13:34:33Z</time>
      </trkpt>
      <trkpt lat="43.82095" lon="5.35962">
        <ele>343.470673</ele>
        <time>2018-11-09T13:34:48Z</time>
      </trkpt>
      <trkpt lat="43.82093" lon="5.35937">
        <ele>340.906311</ele>
        <time>2018-11-09T13:35:04Z</time>
      </trkpt>
      <trkpt lat="43.82089" lon="5.3591">
        <ele>338.395569</ele>
        <time>2018-11-09T13:35:20Z</time>
      </trkpt>
      <trkpt lat="43.82088" lon="5.35883">
        <ele>336.559784</ele>
        <time>2018-11-09T13:35:36Z</time>
      </trkpt>
      <trkpt lat="43.82092" lon="5.35862">
        <ele>335.190399</ele>
        <time>2018-11-09T13:35:51Z</time>
      </trkpt>
      <trkpt lat="43.82106" lon="5.35858">
        <ele>335.202972</ele>
        <time>2018-11-09T13:36:09Z</time>
      </trkpt>
      <trkpt lat="43.82121" lon="5.35863">
        <ele>335.662262</ele>
        <time>2018-11-09T13:36:24Z</time>
      </trkpt>
      <trkpt lat="43.82135" lon="5.35847">
        <ele>335.321594</ele>
        <time>2018-11-09T13:36:39Z</time>
      </trkpt>
      <trkpt lat="43.82146" lon="5.35835">
        <ele>335.299683</ele>
        <time>2018-11-09T13:36:56Z</time>
      </trkpt>
      <trkpt lat="43.82157" lon="5.35823">
        <ele>335.97934</ele>
        <time>2018-11-09T13:37:15Z</time>
      </trkpt>
      <trkpt lat="43.82164" lon="5.35806">
        <ele>337.088501</ele>
        <time>2018-11-09T13:37:31Z</time>
      </trkpt>
      <trkpt lat="43.82167" lon="5.35787">
        <ele>338.220703</ele>
        <time>2018-11-09T13:37:55Z</time>
      </trkpt>
      <trkpt lat="43.82174" lon="5.35768">
        <ele>340.983582</ele>
        <time>2018-11-09T13:38:11Z</time>
      </trkpt>
      <trkpt lat="43.82184" lon="5.35754">
        <ele>344.214783</ele>
        <time>2018-11-09T13:38:26Z</time>
      </trkpt>
      <trkpt lat="43.82178" lon="5.35732">
        <ele>344.65036</ele>
        <time>2018-11-09T13:38:41Z</time>
      </trkpt>
      <trkpt lat="43.82167" lon="5.35713">
        <ele>343.705811</ele>
        <time>2018-11-09T13:38:57Z</time>
      </trkpt>
      <trkpt lat="43.82165" lon="5.35695">
        <ele>344.897675</ele>
        <time>2018-11-09T13:39:13Z</time>
      </trkpt>
      <trkpt lat="43.8216" lon="5.35676">
        <ele>345.654083</ele>
        <time>2018-11-09T13:39:29Z</time>
      </trkpt>
      <trkpt lat="43.82153" lon="5.35652">
        <ele>346.08139</ele>
        <time>2018-11-09T13:39:44Z</time>
      </trkpt>
      <trkpt lat="43.8215" lon="5.35629">
        <ele>347.334106</ele>
        <time>2018-11-09T13:39:59Z</time>
      </trkpt>
      <trkpt lat="43.82148" lon="5.35606">
        <ele>348.544708</ele>
        <time>2018-11-09T13:40:15Z</time>
      </trkpt>
      <trkpt lat="43.82145" lon="5.35583">
        <ele>349.725494</ele>
        <time>2018-11-09T13:40:30Z</time>
      </trkpt>
      <trkpt lat="43.8214" lon="5.35563">
        <ele>350.308136</ele>
        <time>2018-11-09T13:40:46Z</time>
      </trkpt>
      <trkpt lat="43.82124" lon="5.35543">
        <ele>347.789978</ele>
        <time>2018-11-09T13:41:02Z</time>
      </trkpt>
      <trkpt lat="43.82112" lon="5.35524">
        <ele>346.275879</ele>
        <time>2018-11-09T13:41:17Z</time>
      </trkpt>
      <trkpt lat="43.82105" lon="5.35498">
        <ele>346.457489</ele>
        <time>2018-11-09T13:41:33Z</time>
      </trkpt>
      <trkpt lat="43.82096" lon="5.3547">
        <ele>345.029785</ele>
        <time>2018-11-09T13:41:49Z</time>
      </trkpt>
      <trkpt lat="43.82085" lon="5.35443">
        <ele>342.823273</ele>
        <time>2018-11-09T13:42:05Z</time>
      </trkpt>
      <trkpt lat="43.82075" lon="5.35421">
        <ele>341.225098</ele>
        <time>2018-11-09T13:42:21Z</time>
      </trkpt>
      <trkpt lat="43.82063" lon="5.35401">
        <ele>340.535522</ele>
        <time>2018-11-09T13:42:37Z</time>
      </trkpt>
      <trkpt lat="43.82048" lon="5.35385">
        <ele>338.857269</ele>
        <time>2018-11-09T13:42:52Z</time>
      </trkpt>
      <trkpt lat="43.82034" lon="5.35363">
        <ele>338.147156</ele>
        <time>2018-11-09T13:43:08Z</time>
      </trkpt>
      <trkpt lat="43.82021" lon="5.35345">
        <ele>337.152039</ele>
        <time>2018-11-09T13:43:23Z</time>
      </trkpt>
      <trkpt lat="43.82005" lon="5.3533">
        <ele>335.19104</ele>
        <time>2018-11-09T13:43:39Z</time>
      </trkpt>
      <trkpt lat="43.81985" lon="5.35323">
        <ele>332.82431</ele>
        <time>2018-11-09T13:43:54Z</time>
      </trkpt>
      <trkpt lat="43.81968" lon="5.35333">
        <ele>330.887421</ele>
        <time>2018-11-09T13:44:09Z</time>
      </trkpt>
      <trkpt lat="43.81951" lon="5.35337">
        <ele>329.139221</ele>
        <time>2018-11-09T13:44:24Z</time>
      </trkpt>
      <trkpt lat="43.81931" lon="5.35346">
        <ele>326.950104</ele>
        <time>2018-11-09T13:44:40Z</time>
      </trkpt>
      <trkpt lat="43.81916" lon="5.35344">
        <ele>325.782501</ele>
        <time>2018-11-09T13:44:55Z</time>
      </trkpt>
      <trkpt lat="43.81899" lon="5.3533">
        <ele>326.271423</ele>
        <time>2018-11-09T13:45:10Z</time>
      </trkpt>
      <trkpt lat="43.81888" lon="5.35304">
        <ele>325.2547</ele>
        <time>2018-11-09T13:45:26Z</time>
      </trkpt>
      <trkpt lat="43.81879" lon="5.35276">
        <ele>323.668945</ele>
        <time>2018-11-09T13:45:42Z</time>
      </trkpt>
      <trkpt lat="43.81871" lon="5.35249">
        <ele>321.7966</ele>
        <time>2018-11-09T13:45:58Z</time>
      </trkpt>
      <trkpt lat="43.81862" lon="5.35227">
        <ele>320.556915</ele>
        <time>2018-11-09T13:46:13Z</time>
      </trkpt>
      <trkpt lat="43.81852" lon="5.352">
        <ele>318.872559</ele>
        <time>2018-11-09T13:46:29Z</time>
      </trkpt>
      <trkpt lat="43.81847" lon="5.35175">
        <ele>317.498291</ele>
        <time>2018-11-09T13:46:44Z</time>
      </trkpt>
      <trkpt lat="43.81847" lon="5.35152">
        <ele>316.784058</ele>
        <time>2018-11-09T13:47:00Z</time>
      </trkpt>
      <trkpt lat="43.81841" lon="5.35123">
        <ele>315.559692</ele>
        <time>2018-11-09T13:47:15Z</time>
      </trkpt>
      <trkpt lat="43.81834" lon="5.35096">
        <ele>314.336548</ele>
        <time>2018-11-09T13:47:31Z</time>
      </trkpt>
      <trkpt lat="43.81826" lon="5.35067">
        <ele>314.927521</ele>
        <time>2018-11-09T13:47:47Z</time>
      </trkpt>
      <trkpt lat="43.8182" lon="5.35042">
        <ele>315.56897</ele>
        <time>2018-11-09T13:48:02Z</time>
      </trkpt>
      <trkpt lat="43.8181" lon="5.35018">
        <ele>315.832092</ele>
        <time>2018-11-09T13:48:18Z</time>
      </trkpt>
      <trkpt lat="43.81801" lon="5.34997">
        <ele>315.748627</ele>
        <time>2018-11-09T13:48:33Z</time>
      </trkpt>
      <trkpt lat="43.81794" lon="5.34976">
        <ele>316.466553</ele>
        <time>2018-11-09T13:48:48Z</time>
      </trkpt>
      <trkpt lat="43.81785" lon="5.34956">
        <ele>316.644897</ele>
        <time>2018-11-09T13:49:04Z</time>
      </trkpt>
      <trkpt lat="43.81772" lon="5.34934">
        <ele>316.1474</ele>
        <time>2018-11-09T13:49:19Z</time>
      </trkpt>
      <trkpt lat="43.81758" lon="5.34915">
        <ele>314.99411</ele>
        <time>2018-11-09T13:49:35Z</time>
      </trkpt>
      <trkpt lat="43.81747" lon="5.34895">
        <ele>315.508087</ele>
        <time>2018-11-09T13:49:50Z</time>
      </trkpt>
      <trkpt lat="43.81739" lon="5.34873">
        <ele>316.669434</ele>
        <time>2018-11-09T13:50:05Z</time>
      </trkpt>
      <trkpt lat="43.81732" lon="5.34849">
        <ele>317.481903</ele>
        <time>2018-11-09T13:50:21Z</time>
      </trkpt>
      <trkpt lat="43.81725" lon="5.34824">
        <ele>318.3974</ele>
        <time>2018-11-09T13:50:37Z</time>
      </trkpt>
      <trkpt lat="43.81717" lon="5.34806">
        <ele>319.077026</ele>
        <time>2018-11-09T13:50:52Z</time>
      </trkpt>
      <trkpt lat="43.81709" lon="5.34785">
        <ele>319.643066</ele>
        <time>2018-11-09T13:51:08Z</time>
      </trkpt>
      <trkpt lat="43.817" lon="5.34761">
        <ele>319.803497</ele>
        <time>2018-11-09T13:51:23Z</time>
      </trkpt>
      <trkpt lat="43.81686" lon="5.34732">
        <ele>320.000671</ele>
        <time>2018-11-09T13:51:39Z</time>
      </trkpt>
      <trkpt lat="43.81672" lon="5.34718">
        <ele>319.387573</ele>
        <time>2018-11-09T13:51:54Z</time>
      </trkpt>
      <trkpt lat="43.81651" lon="5.34706">
        <ele>318.007172</ele>
        <time>2018-11-09T13:52:10Z</time>
      </trkpt>
      <trkpt lat="43.81635" lon="5.34696">
        <ele>316.750183</ele>
        <time>2018-11-09T13:52:25Z</time>
      </trkpt>
      <trkpt lat="43.81617" lon="5.3469">
        <ele>314.45929</ele>
        <time>2018-11-09T13:52:40Z</time>
      </trkpt>
      <trkpt lat="43.81601" lon="5.3468">
        <ele>312.385345</ele>
        <time>2018-11-09T13:52:55Z</time>
      </trkpt>
      <trkpt lat="43.81585" lon="5.34662">
        <ele>310.771393</ele>
        <time>2018-11-09T13:53:11Z</time>
      </trkpt>
      <trkpt lat="43.81574" lon="5.34646">
        <ele>311.200806</ele>
        <time>2018-11-09T13:53:26Z</time>
      </trkpt>
      <trkpt lat="43.81563" lon="5.34634">
        <ele>311.177002</ele>
        <time>2018-11-09T13:53:42Z</time>
      </trkpt>
      <trkpt lat="43.81556" lon="5.34616">
        <ele>311.444702</ele>
        <time>2018-11-09T13:53:57Z</time>
      </trkpt>
      <trkpt lat="43.81548" lon="5.34591">
        <ele>311.586884</ele>
        <time>2018-11-09T13:54:13Z</time>
      </trkpt>
      <trkpt lat="43.81536" lon="5.34566">
        <ele>311.432129</ele>
        <time>2018-11-09T13:54:28Z</time>
      </trkpt>
      <trkpt lat="43.8152" lon="5.34543">
        <ele>310.338562</ele>
        <time>2018-11-09T13:54:43Z</time>
      </trkpt>
      <trkpt lat="43.8151" lon="5.34524">
        <ele>309.666473</ele>
        <time>2018-11-09T13:54:58Z</time>
      </trkpt>
      <trkpt lat="43.81494" lon="5.34516">
        <ele>308.242798</ele>
        <time>2018-11-09T13:55:14Z</time>
      </trkpt>
      <trkpt lat="43.81477" lon="5.34507">
        <ele>308.656006</ele>
        <time>2018-11-09T13:55:29Z</time>
      </trkpt>
      <trkpt lat="43.81456" lon="5.34505">
        <ele>308.78186</ele>
        <time>2018-11-09T13:55:44Z</time>
      </trkpt>
      <trkpt lat="43.81437" lon="5.34503">
        <ele>308.859497</ele>
        <time>2018-11-09T13:56:00Z</time>
      </trkpt>
      <trkpt lat="43.81418" lon="5.34507">
        <ele>308.664062</ele>
        <time>2018-11-09T13:56:16Z</time>
      </trkpt>
      <trkpt lat="43.81402" lon="5.34511">
        <ele>307.632294</ele>
        <time>2018-11-09T13:56:31Z</time>
      </trkpt>
      <trkpt lat="43.81383" lon="5.34517">
        <ele>306.446472</ele>
        <time>2018-11-09T13:56:47Z</time>
      </trkpt>
      <trkpt lat="43.81366" lon="5.34514">
        <ele>305.60141</ele>
        <time>2018-11-09T13:57:02Z</time>
      </trkpt>
      <trkpt lat="43.81348" lon="5.34511">
        <ele>304.684021</ele>
        <time>2018-11-09T13:57:18Z</time>
      </trkpt>
      <trkpt lat="43.81329" lon="5.34509">
        <ele>303.79425</ele>
        <time>2018-11-09T13:57:33Z</time>
      </trkpt>
      <trkpt lat="43.81312" lon="5.34504">
        <ele>303.146545</ele>
        <time>2018-11-09T13:57:49Z</time>
      </trkpt>
      <trkpt lat="43.81293" lon="5.34491">
        <ele>303.684235</ele>
        <time>2018-11-09T13:58:05Z</time>
      </trkpt>
      <trkpt lat="43.81279" lon="5.34475">
        <ele>305.24231</ele>
        <time>2018-11-09T13:58:21Z</time>
      </trkpt>
      <trkpt lat="43.81261" lon="5.34464">
        <ele>305.40451</ele>
        <time>2018-11-09T13:58:36Z</time>
      </trkpt>
      <trkpt lat="43.81241" lon="5.34448">
        <ele>306.398254</ele>
        <time>2018-11-09T13:58:52Z</time>
      </trkpt>
      <trkpt lat="43.81222" lon="5.34436">
        <ele>306.672913</ele>
        <time>2018-11-09T13:59:08Z</time>
      </trkpt>
      <trkpt lat="43.81206" lon="5.34425">
        <ele>305.30246</ele>
        <time>2018-11-09T13:59:24Z</time>
      </trkpt>
      <trkpt lat="43.81189" lon="5.34412">
        <ele>304.078186</ele>
        <time>2018-11-09T13:59:40Z</time>
      </trkpt>
      <trkpt lat="43.81171" lon="5.34398">
        <ele>305.745026</ele>
        <time>2018-11-09T13:59:55Z</time>
      </trkpt>
      <trkpt lat="43.81152" lon="5.34396">
        <ele>305.543976</ele>
        <time>2018-11-09T14:00:11Z</time>
      </trkpt>
      <trkpt lat="43.81138" lon="5.34409">
        <ele>302.764465</ele>
        <time>2018-11-09T14:00:26Z</time>
      </trkpt>
      <trkpt lat="43.81118" lon="5.34413">
        <ele>302.764893</ele>
        <time>2018-11-09T14:00:41Z</time>
      </trkpt>
      <trkpt lat="43.81099" lon="5.34419">
        <ele>304.206177</ele>
        <time>2018-11-09T14:00:57Z</time>
      </trkpt>
      <trkpt lat="43.81078" lon="5.34414">
        <ele>305.529144</ele>
        <time>2018-11-09T14:01:13Z</time>
      </trkpt>
      <trkpt lat="43.81068" lon="5.34397">
        <ele>307.858429</ele>
        <time>2018-11-09T14:01:29Z</time>
      </trkpt>
      <trkpt lat="43.81061" lon="5.34375">
        <ele>307.898438</ele>
        <time>2018-11-09T14:01:45Z</time>
      </trkpt>
      <trkpt lat="43.81054" lon="5.34353">
        <ele>306.626587</ele>
        <time>2018-11-09T14:02:00Z</time>
      </trkpt>
      <trkpt lat="43.81043" lon="5.34334">
        <ele>304.618713</ele>
        <time>2018-11-09T14:02:16Z</time>
      </trkpt>
      <trkpt lat="43.81028" lon="5.34314">
        <ele>304.253082</ele>
        <time>2018-11-09T14:02:31Z</time>
      </trkpt>
      <trkpt lat="43.8101" lon="5.34297">
        <ele>301.874542</ele>
        <time>2018-11-09T14:02:47Z</time>
      </trkpt>
      <trkpt lat="43.80997" lon="5.34278">
        <ele>298.73761</ele>
        <time>2018-11-09T14:03:02Z</time>
      </trkpt>
      <trkpt lat="43.80983" lon="5.34261">
        <ele>297.064545</ele>
        <time>2018-11-09T14:03:18Z</time>
      </trkpt>
      <trkpt lat="43.80974" lon="5.34244">
        <ele>296.567444</ele>
        <time>2018-11-09T14:03:33Z</time>
      </trkpt>
      <trkpt lat="43.80957" lon="5.34235">
        <ele>298.1409</ele>
        <time>2018-11-09T14:03:49Z</time>
      </trkpt>
      <trkpt lat="43.80939" lon="5.34229">
        <ele>299.547638</ele>
        <time>2018-11-09T14:04:04Z</time>
      </trkpt>
      <trkpt lat="43.80929" lon="5.34243">
        <ele>296.797821</ele>
        <time>2018-11-09T14:04:20Z</time>
      </trkpt>
      <trkpt lat="43.80917" lon="5.34264">
        <ele>297.815155</ele>
        <time>2018-11-09T14:04:35Z</time>
      </trkpt>
    </trkseg>
  </trk>
</gpx>